Wetterdaten: Donnerstag, 01.06.2023
Datum Zeit Temp. Aussen Temp. o. S. Temp +5cm Feuchte Auss Luftdruck Regen Sonnenschein Regendauer Solar Windben Empfang
01.06.2023 00:00 17,5 C 15,6 C 12,2 C 74 % 1021,6 hPa 0,0 l/m 0 min 0 min 0 W/m 0,0 km/h (0 Bft) 95,74 %
01.06.2023 00:02 17,4 C 16,1 C 12,2 C 74 % 1021,6 hPa 0,0 l/m 0 min 0 min 0 W/m 3,2 km/h (1 Bft) 95,24 %
01.06.2023 00:04 17,4 C 16,1 C 12,8 C 74 % 1021,7 hPa 0,0 l/m 0 min 0 min 0 W/m 3,2 km/h (1 Bft) 95,74 %
01.06.2023 00:07 17,3 C 16,1 C 12,8 C 74 % 1021,7 hPa 0,0 l/m 0 min 0 min 0 W/m 3,2 km/h (1 Bft) 94,74 %
01.06.2023 00:08 17,3 C 16,1 C 12,8 C 74 % 1021,7 hPa 0,0 l/m 0 min 0 min 0 W/m 0,0 km/h (0 Bft) 100,00 %
01.06.2023 00:12 17,2 C 16,1 C 12,8 C 75 % 1021,7 hPa 0,0 l/m 0 min 0 min 0 W/m 9,7 km/h (2 Bft) 98,00 %
01.06.2023 00:14 17,2 C 16,7 C 12,8 C 75 % 1021,7 hPa 0,0 l/m 0 min 0 min 0 W/m 3,2 km/h (1 Bft) 97,87 %
01.06.2023 00:16 17,3 C 16,7 C 12,8 C 75 % 1021,7 hPa 0,0 l/m 0 min 0 min 0 W/m 3,2 km/h (1 Bft) 97,87 %
01.06.2023 00:18 17,3 C 16,7 C 12,8 C 75 % 1021,7 hPa 0,0 l/m 0 min 0 min 0 W/m 9,7 km/h (2 Bft) 97,87 %
01.06.2023 00:20 17,3 C 16,7 C 12,8 C 75 % 1021,7 hPa 0,0 l/m 0 min 0 min 0 W/m 3,2 km/h (1 Bft) 95,65 %
01.06.2023 00:22 17,3 C 16,7 C 12,8 C 76 % 1021,7 hPa 0,0 l/m 0 min 0 min 0 W/m 12,9 km/h (3 Bft) 100,00 %
01.06.2023 00:24 17,4 C 16,7 C 12,8 C 76 % 1021,7 hPa 0,0 l/m 0 min 0 min 0 W/m 6,4 km/h (2 Bft) 100,00 %
01.06.2023 00:26 17,4 C 16,7 C 13,3 C 76 % 1021,7 hPa 0,0 l/m 0 min 0 min 0 W/m 6,4 km/h (2 Bft) 100,00 %
01.06.2023 00:28 17,4 C 16,7 C 12,8 C 76 % 1021,8 hPa 0,0 l/m 0 min 0 min 0 W/m 6,4 km/h (2 Bft) 100,00 %
01.06.2023 00:30 17,4 C 16,7 C 12,8 C 76 % 1021,8 hPa 0,0 l/m 0 min 0 min 0 W/m 6,4 km/h (2 Bft) 100,00 %
01.06.2023 00:32 17,4 C 16,7 C 13,3 C 76 % 1021,8 hPa 0,0 l/m 0 min 0 min 0 W/m 12,9 km/h (3 Bft) 100,00 %
01.06.2023 00:34 17,4 C 16,7 C 13,3 C 76 % 1021,8 hPa 0,0 l/m 0 min 0 min 0 W/m 22,5 km/h (4 Bft) 100,00 %
01.06.2023 00:36 17,4 C 16,7 C 12,8 C 76 % 1021,8 hPa 0,0 l/m 0 min 0 min 0 W/m 9,7 km/h (2 Bft) 97,87 %
01.06.2023 00:38 17,4 C 16,7 C 12,8 C 76 % 1021,8 hPa 0,0 l/m 0 min 0 min 0 W/m 9,7 km/h (2 Bft) 100,00 %
01.06.2023 00:40 17,4 C 16,7 C 12,8 C 76 % 1021,8 hPa 0,0 l/m 0 min 0 min 0 W/m 6,4 km/h (2 Bft) 100,00 %
01.06.2023 00:42 17,4 C 16,7 C 12,8 C 76 % 1021,8 hPa 0,0 l/m 0 min 0 min 0 W/m 6,4 km/h (2 Bft) 100,00 %
01.06.2023 00:44 17,3 C 16,1 C 12,8 C 76 % 1021,8 hPa 0,0 l/m 0 min 0 min 0 W/m 6,4 km/h (2 Bft) 100,00 %
01.06.2023 00:46 17,3 C 16,1 C 12,8 C 76 % 1021,8 hPa 0,0 l/m 0 min 0 min 0 W/m 12,9 km/h (3 Bft) 100,00 %
01.06.2023 00:48 17,3 C 16,1 C 12,8 C 77 % 1021,7 hPa 0,0 l/m 0 min 0 min 0 W/m 12,9 km/h (3 Bft) 100,00 %
01.06.2023 00:50 17,3 C 16,1 C 12,8 C 77 % 1021,8 hPa 0,0 l/m 0 min 0 min 0 W/m 6,4 km/h (2 Bft) 100,00 %
01.06.2023 00:52 17,2 C 16,1 C 12,8 C 77 % 1021,7 hPa 0,0 l/m 0 min 0 min 0 W/m 3,2 km/h (1 Bft) 100,00 %
01.06.2023 00:54 17,2 C 16,1 C 12,8 C 77 % 1021,7 hPa 0,0 l/m 0 min 0 min 0 W/m 6,4 km/h (2 Bft) 100,00 %
01.06.2023 00:56 17,1 C 16,1 C 12,8 C 77 % 1021,7 hPa 0,0 l/m 0 min 0 min 0 W/m 9,7 km/h (2 Bft) 97,87 %
01.06.2023 00:58 17,1 C 16,1 C 12,8 C 77 % 1021,7 hPa 0,0 l/m 0 min 0 min 0 W/m 9,7 km/h (2 Bft) 100,00 %
01.06.2023 01:00 17,1 C 16,1 C 12,8 C 77 % 1021,7 hPa 0,0 l/m 0 min 0 min 0 W/m 6,4 km/h (2 Bft) 97,87 %
01.06.2023 01:02 17,1 C 16,1 C 12,8 C 77 % 1021,7 hPa 0,0 l/m 0 min 0 min 0 W/m 9,7 km/h (2 Bft) 97,87 %
01.06.2023 01:04 17,0 C 16,1 C 12,8 C 78 % 1021,8 hPa 0,0 l/m 0 min 0 min 0 W/m 9,7 km/h (2 Bft) 100,00 %
01.06.2023 01:06 16,9 C 16,1 C 12,8 C 78 % 1021,8 hPa 0,0 l/m 0 min 0 min 0 W/m 6,4 km/h (2 Bft) 100,00 %
01.06.2023 01:08 16,9 C 16,1 C 12,2 C 78 % 1021,8 hPa 0,0 l/m 0 min 0 min 0 W/m 3,2 km/h (1 Bft) 97,87 %
01.06.2023 01:10 16,9 C 15,6 C 12,2 C 78 % 1021,8 hPa 0,0 l/m 0 min 0 min 0 W/m 6,4 km/h (2 Bft) 100,00 %
01.06.2023 01:12 16,8 C 15,6 C 12,2 C 78 % 1021,8 hPa 0,0 l/m 0 min 0 min 0 W/m 3,2 km/h (1 Bft) 100,00 %
01.06.2023 01:14 16,8 C 15,6 C 12,2 C 78 % 1021,9 hPa 0,0 l/m 0 min 0 min 0 W/m 3,2 km/h (1 Bft) 100,00 %
01.06.2023 01:16 16,7 C 15,6 C 12,2 C 78 % 1021,9 hPa 0,0 l/m 0 min 0 min 0 W/m 12,9 km/h (3 Bft) 100,00 %
01.06.2023 01:18 16,7 C 15,6 C 12,2 C 78 % 1021,9 hPa 0,0 l/m 0 min 0 min 0 W/m 6,4 km/h (2 Bft) 97,14 %
01.06.2023 01:20 16,7 C 15,6 C 12,2 C 79 % 1021,9 hPa 0,0 l/m 0 min 0 min 0 W/m 6,4 km/h (2 Bft) 98,31 %
01.06.2023 01:22 16,6 C 15,6 C 12,2 C 79 % 1022,0 hPa 0,0 l/m 0 min 0 min 0 W/m 6,4 km/h (2 Bft) 100,00 %
01.06.2023 01:24 16,6 C 15,6 C 12,2 C 79 % 1022,0 hPa 0,0 l/m 0 min 0 min 0 W/m 3,2 km/h (1 Bft) 94,44 %
01.06.2023 01:26 16,6 C 15,6 C 12,2 C 79 % 1021,9 hPa 0,0 l/m 0 min 0 min 0 W/m 3,2 km/h (1 Bft) 100,00 %
01.06.2023 01:28 16,5 C 15,6 C 12,2 C 79 % 1021,9 hPa 0,0 l/m 0 min 0 min 0 W/m 12,9 km/h (3 Bft) 100,00 %
01.06.2023 01:30 16,4 C 15,6 C 12,2 C 79 % 1022,0 hPa 0,0 l/m 0 min 0 min 0 W/m 3,2 km/h (1 Bft) 97,87 %
01.06.2023 01:32 16,4 C 15,6 C 12,2 C 79 % 1022,0 hPa 0,0 l/m 0 min 0 min 0 W/m 16,1 km/h (3 Bft) 100,00 %
01.06.2023 01:34 16,4 C 15,6 C 12,2 C 79 % 1022,0 hPa 0,0 l/m 0 min 0 min 0 W/m 9,7 km/h (2 Bft) 97,87 %
01.06.2023 01:36 16,4 C 15,6 C 12,2 C 79 % 1022,0 hPa 0,0 l/m 0 min 0 min 0 W/m 9,7 km/h (2 Bft) 100,00 %
01.06.2023 01:38 16,4 C 15,6 C 12,2 C 80 % 1022,0 hPa 0,0 l/m 0 min 0 min 0 W/m 9,7 km/h (2 Bft) 97,87 %
01.06.2023 01:40 16,3 C 15,6 C 12,2 C 80 % 1022,0 hPa 0,0 l/m 0 min 0 min 0 W/m 9,7 km/h (2 Bft) 97,83 %
01.06.2023 01:42 16,3 C 15,6 C 12,2 C 80 % 1022,0 hPa 0,0 l/m 0 min 0 min 0 W/m 3,2 km/h (1 Bft) 95,74 %
01.06.2023 01:44 16,3 C 15,6 C 11,7 C 80 % 1021,9 hPa 0,0 l/m 0 min 0 min 0 W/m 6,4 km/h (2 Bft) 97,87 %
01.06.2023 01:46 16,3 C 15,6 C 11,7 C 80 % 1022,0 hPa 0,0 l/m 0 min 0 min 0 W/m 6,4 km/h (2 Bft) 97,87 %
01.06.2023 01:48 16,3 C 15,0 C 11,7 C 80 % 1022,0 hPa 0,0 l/m 0 min 0 min 0 W/m 6,4 km/h (2 Bft) 97,87 %
01.06.2023 01:50 16,2 C 15,0 C 11,7 C 80 % 1022,0 hPa 0,0 l/m 0 min 0 min 0 W/m 6,4 km/h (2 Bft) 95,74 %
01.06.2023 01:52 16,2 C 15,0 C 11,7 C 80 % 1022,0 hPa 0,0 l/m 0 min 0 min 0 W/m 6,4 km/h (2 Bft) 97,87 %
01.06.2023 01:54 16,1 C 15,0 C 11,7 C 80 % 1022,0 hPa 0,0 l/m 0 min 0 min 0 W/m 3,2 km/h (1 Bft) 97,83 %
01.06.2023 01:56 16,1 C 15,0 C 11,7 C 80 % 1022,0 hPa 0,0 l/m 0 min 0 min 0 W/m 12,9 km/h (3 Bft) 97,87 %
01.06.2023 01:58 16,1 C 15,0 C 11,7 C 80 % 1022,0 hPa 0,0 l/m 0 min 0 min 0 W/m 12,9 km/h (3 Bft) 95,74 %
01.06.2023 02:00 16,1 C 15,0 C 11,7 C 80 % 1022,0 hPa 0,0 l/m 0 min 0 min 0 W/m 6,4 km/h (2 Bft) 95,74 %
01.06.2023 02:02 16,0 C 15,0 C 11,7 C 80 % 1022,0 hPa 0,0 l/m 0 min 0 min 0 W/m 12,9 km/h (3 Bft) 97,87 %
01.06.2023 02:04 16,0 C 15,0 C 11,7 C 80 % 1022,0 hPa 0,0 l/m 0 min 0 min 0 W/m 9,7 km/h (2 Bft) 93,75 %
01.06.2023 02:06 15,9 C 15,0 C 11,7 C 81 % 1022,0 hPa 0,0 l/m 0 min 0 min 0 W/m 16,1 km/h (3 Bft) 91,53 %
01.06.2023 02:08 15,9 C 15,0 C 11,7 C 81 % 1022,1 hPa 0,0 l/m 0 min 0 min 0 W/m 3,2 km/h (1 Bft) 94,29 %
01.06.2023 02:10 15,9 C 15,0 C 11,7 C 81 % 1022,1 hPa 0,0 l/m 0 min 0 min 0 W/m 3,2 km/h (1 Bft) 95,74 %
01.06.2023 02:14 15,8 C 15,0 C 11,7 C 81 % 1022,1 hPa 0,0 l/m 0 min 0 min 0 W/m 6,4 km/h (2 Bft) 96,15 %
01.06.2023 02:16 15,8 C 15,0 C 11,7 C 81 % 1022,1 hPa 0,0 l/m 0 min 0 min 0 W/m 16,1 km/h (3 Bft) 94,29 %
01.06.2023 02:18 15,7 C 15,0 C 11,7 C 81 % 1022,1 hPa 0,0 l/m 0 min 0 min 0 W/m 12,9 km/h (3 Bft) 98,04 %
01.06.2023 02:20 15,7 C 15,0 C 11,7 C 82 % 1022,1 hPa 0,0 l/m 0 min 0 min 0 W/m 6,4 km/h (2 Bft) 93,62 %
01.06.2023 02:22 15,7 C 14,4 C 11,1 C 82 % 1022,1 hPa 0,0 l/m 0 min 0 min 0 W/m 6,4 km/h (2 Bft) 95,45 %
01.06.2023 02:24 15,6 C 14,4 C 11,1 C 82 % 1022,1 hPa 0,0 l/m 0 min 0 min 0 W/m 6,4 km/h (2 Bft) 96,00 %
01.06.2023 02:26 15,6 C 14,4 C 11,1 C 82 % 1022,1 hPa 0,0 l/m 0 min 0 min 0 W/m 6,4 km/h (2 Bft) 95,65 %
01.06.2023 02:28 15,6 C 14,4 C 11,1 C 82 % 1022,1 hPa 0,0 l/m 0 min 0 min 0 W/m 6,4 km/h (2 Bft) 95,74 %
01.06.2023 02:30 15,5 C 14,4 C 11,1 C 82 % 1022,1 hPa 0,0 l/m 0 min 0 min 0 W/m 12,9 km/h (3 Bft) 95,74 %
01.06.2023 02:32 15,4 C 14,4 C 11,1 C 82 % 1022,1 hPa 0,0 l/m 0 min 0 min 0 W/m 19,3 km/h (3 Bft) 95,56 %
01.06.2023 02:34 15,3 C 14,4 C 11,1 C 82 % 1022,2 hPa 0,0 l/m 0 min 0 min 0 W/m 16,1 km/h (3 Bft) 93,62 %
01.06.2023 02:36 15,3 C 14,4 C 11,1 C 83 % 1022,1 hPa 0,0 l/m 0 min 0 min 0 W/m 6,4 km/h (2 Bft) 95,74 %
01.06.2023 02:38 15,2 C 14,4 C 11,1 C 83 % 1022,1 hPa 0,0 l/m 0 min 0 min 0 W/m 6,4 km/h (2 Bft) 95,74 %
01.06.2023 02:40 15,2 C 13,9 C 10,6 C 83 % 1022,2 hPa 0,0 l/m 0 min 0 min 0 W/m 6,4 km/h (2 Bft) 95,65 %
01.06.2023 02:42 15,1 C 13,9 C 10,6 C 83 % 1022,2 hPa 0,0 l/m 0 min 0 min 0 W/m 6,4 km/h (2 Bft) 97,96 %
01.06.2023 02:44 15,1 C 13,9 C 10,6 C 83 % 1022,2 hPa 0,0 l/m 0 min 0 min 0 W/m 6,4 km/h (2 Bft) 97,87 %
01.06.2023 02:46 15,0 C 13,9 C 10,6 C 84 % 1022,1 hPa 0,0 l/m 0 min 0 min 0 W/m 12,9 km/h (3 Bft) 97,87 %
01.06.2023 02:48 14,9 C 13,9 C 10,6 C 84 % 1022,2 hPa 0,0 l/m 0 min 0 min 0 W/m 16,1 km/h (3 Bft) 97,87 %
01.06.2023 02:50 14,9 C 13,9 C 10,6 C 84 % 1022,2 hPa 0,0 l/m 0 min 0 min 0 W/m 3,2 km/h (1 Bft) 95,74 %
01.06.2023 02:52 14,9 C 13,9 C 10,6 C 84 % 1022,2 hPa 0,0 l/m 0 min 0 min 0 W/m 6,4 km/h (2 Bft) 93,48 %
01.06.2023 02:54 14,8 C 13,9 C 10,6 C 84 % 1022,2 hPa 0,0 l/m 0 min 0 min 0 W/m 6,4 km/h (2 Bft) 97,87 %
01.06.2023 02:56 14,8 C 13,9 C 10,6 C 84 % 1022,2 hPa 0,0 l/m 0 min 0 min 0 W/m 6,4 km/h (2 Bft) 97,87 %
01.06.2023 02:58 14,7 C 13,9 C 10,6 C 84 % 1022,1 hPa 0,0 l/m 0 min 0 min 0 W/m 16,1 km/h (3 Bft) 100,00 %
01.06.2023 03:00 14,7 C 13,9 C 10,0 C 84 % 1022,1 hPa 0,0 l/m 0 min 0 min 0 W/m 6,4 km/h (2 Bft) 97,87 %
01.06.2023 03:02 14,6 C 13,9 C 10,0 C 84 % 1022,1 hPa 0,0 l/m 0 min 0 min 0 W/m 6,4 km/h (2 Bft) 100,00 %
01.06.2023 03:04 14,6 C 13,9 C 10,0 C 85 % 1022,1 hPa 0,0 l/m 0 min 0 min 0 W/m 6,4 km/h (2 Bft) 100,00 %
01.06.2023 03:06 14,5 C 13,9 C 10,0 C 85 % 1022,1 hPa 0,0 l/m 0 min 0 min 0 W/m 6,4 km/h (2 Bft) 100,00 %
01.06.2023 03:08 14,4 C 13,3 C 10,0 C 85 % 1022,1 hPa 0,0 l/m 0 min 0 min 0 W/m 6,4 km/h (2 Bft) 100,00 %
01.06.2023 03:10 14,3 C 13,3 C 10,0 C 85 % 1022,1 hPa 0,0 l/m 0 min 0 min 0 W/m 9,7 km/h (2 Bft) 100,00 %
01.06.2023 03:12 14,3 C 13,3 C 10,0 C 85 % 1022,1 hPa 0,0 l/m 0 min 0 min 0 W/m 9,7 km/h (2 Bft) 100,00 %
01.06.2023 03:14 14,3 C 13,3 C 10,0 C 85 % 1022,1 hPa 0,0 l/m 0 min 0 min 0 W/m 3,2 km/h (1 Bft) 97,87 %
01.06.2023 03:16 14,3 C 13,3 C 10,0 C 85 % 1022,1 hPa 0,0 l/m 0 min 0 min 0 W/m 9,7 km/h (2 Bft) 100,00 %
01.06.2023 03:18 14,3 C 13,3 C 10,0 C 85 % 1022,1 hPa 0,0 l/m 0 min 0 min 0 W/m 12,9 km/h (3 Bft) 100,00 %
01.06.2023 03:20 14,2 C 13,3 C 10,0 C 85 % 1022,1 hPa 0,0 l/m 0 min 0 min 0 W/m 6,4 km/h (2 Bft) 97,87 %
01.06.2023 03:22 14,1 C 13,3 C 9,4 C 86 % 1022,1 hPa 0,0 l/m 0 min 0 min 0 W/m 6,4 km/h (2 Bft) 97,87 %
01.06.2023 03:24 14,1 C 13,3 C 9,4 C 85 % 1022,1 hPa 0,0 l/m 0 min 0 min 0 W/m 9,7 km/h (2 Bft) 97,87 %
01.06.2023 03:26 14,0 C 12,8 C 9,4 C 86 % 1022,1 hPa 0,0 l/m 0 min 0 min 0 W/m 6,4 km/h (2 Bft) 93,75 %
01.06.2023 03:28 13,9 C 12,8 C 9,4 C 86 % 1022,1 hPa 0,0 l/m 0 min 0 min 0 W/m 9,7 km/h (2 Bft) 97,83 %
01.06.2023 03:30 13,9 C 12,8 C 9,4 C 86 % 1022,1 hPa 0,0 l/m 0 min 0 min 0 W/m 6,4 km/h (2 Bft) 95,74 %
01.06.2023 03:32 13,8 C 12,8 C 9,4 C 86 % 1022,1 hPa 0,0 l/m 0 min 0 min 0 W/m 6,4 km/h (2 Bft) 97,87 %
01.06.2023 03:34 13,8 C 12,8 C 9,4 C 86 % 1022,2 hPa 0,0 l/m 0 min 0 min 0 W/m 6,4 km/h (2 Bft) 95,74 %
01.06.2023 03:36 13,8 C 12,8 C 9,4 C 86 % 1022,2 hPa 0,0 l/m 0 min 0 min 0 W/m 6,4 km/h (2 Bft) 97,87 %
01.06.2023 03:38 13,8 C 12,8 C 9,4 C 86 % 1022,2 hPa 0,0 l/m 0 min 0 min 0 W/m 6,4 km/h (2 Bft) 97,87 %
01.06.2023 03:40 13,7 C 12,8 C 9,4 C 87 % 1022,1 hPa 0,0 l/m 0 min 0 min 0 W/m 9,7 km/h (2 Bft) 95,65 %
01.06.2023 03:42 13,7 C 12,8 C 9,4 C 87 % 1022,2 hPa 0,0 l/m 0 min 0 min 0 W/m 6,4 km/h (2 Bft) 95,74 %
01.06.2023 03:44 13,7 C 12,8 C 9,4 C 87 % 1022,2 hPa 0,0 l/m 0 min 0 min 0 W/m 6,4 km/h (2 Bft) 97,87 %
01.06.2023 03:46 13,6 C 12,8 C 9,4 C 87 % 1022,2 hPa 0,0 l/m 0 min 0 min 0 W/m 6,4 km/h (2 Bft) 97,62 %
01.06.2023 03:48 13,6 C 12,8 C 9,4 C 87 % 1022,1 hPa 0,0 l/m 0 min 0 min 0 W/m 6,4 km/h (2 Bft) 97,87 %
01.06.2023 03:50 13,6 C 12,8 C 9,4 C 87 % 1022,2 hPa 0,0 l/m 0 min 0 min 0 W/m 6,4 km/h (2 Bft) 93,62 %
01.06.2023 03:52 13,6 C 12,8 C 9,4 C 87 % 1022,2 hPa 0,0 l/m 0 min 0 min 0 W/m 9,7 km/h (2 Bft) 97,87 %
01.06.2023 03:54 13,5 C 12,8 C 8,9 C 87 % 1022,2 hPa 0,0 l/m 0 min 0 min 0 W/m 6,4 km/h (2 Bft) 100,00 %
01.06.2023 03:56 13,4 C 12,8 C 8,9 C 87 % 1022,2 hPa 0,0 l/m 0 min 0 min 0 W/m 12,9 km/h (3 Bft) 100,00 %
01.06.2023 03:58 13,4 C 12,2 C 8,9 C 87 % 1022,1 hPa 0,0 l/m 0 min 0 min 0 W/m 6,4 km/h (2 Bft) 97,87 %
01.06.2023 04:00 13,3 C 12,2 C 8,9 C 87 % 1022,2 hPa 0,0 l/m 0 min 0 min 0 W/m 12,9 km/h (3 Bft) 97,87 %
01.06.2023 04:02 13,3 C 12,2 C 8,9 C 88 % 1022,2 hPa 0,0 l/m 0 min 0 min 0 W/m 6,4 km/h (2 Bft) 100,00 %
01.06.2023 04:04 13,3 C 12,2 C 8,9 C 88 % 1022,1 hPa 0,0 l/m 0 min 0 min 0 W/m 9,7 km/h (2 Bft) 100,00 %
01.06.2023 04:06 13,2 C 12,2 C 8,9 C 88 % 1022,1 hPa 0,0 l/m 0 min 0 min 0 W/m 6,4 km/h (2 Bft) 100,00 %
01.06.2023 04:08 13,2 C 12,2 C 8,9 C 88 % 1022,1 hPa 0,0 l/m 0 min 0 min 0 W/m 3,2 km/h (1 Bft) 100,00 %
01.06.2023 04:10 13,2 C 12,2 C 8,9 C 88 % 1022,1 hPa 0,0 l/m 0 min 0 min 0 W/m 6,4 km/h (2 Bft) 100,00 %
01.06.2023 04:12 13,1 C 12,2 C 8,9 C 88 % 1022,1 hPa 0,0 l/m 0 min 0 min 0 W/m 6,4 km/h (2 Bft) 100,00 %
01.06.2023 04:14 13,1 C 12,2 C 8,9 C 88 % 1022,1 hPa 0,0 l/m 0 min 0 min 0 W/m 9,7 km/h (2 Bft) 100,00 %
01.06.2023 04:16 13,1 C 12,2 C 8,9 C 88 % 1022,1 hPa 0,0 l/m 0 min 0 min 0 W/m 6,4 km/h (2 Bft) 95,74 %
01.06.2023 04:18 13,0 C 12,2 C 8,9 C 88 % 1022,1 hPa 0,0 l/m 0 min 0 min 0 W/m 6,4 km/h (2 Bft) 97,83 %
01.06.2023 04:20 13,0 C 12,2 C 8,9 C 88 % 1022,1 hPa 0,0 l/m 0 min 0 min 0 W/m 6,4 km/h (2 Bft) 100,00 %
01.06.2023 04:22 12,9 C 12,2 C 8,9 C 88 % 1022,1 hPa 0,0 l/m 0 min 0 min 0 W/m 12,9 km/h (3 Bft) 100,00 %
01.06.2023 04:24 12,9 C 11,7 C 8,9 C 88 % 1022,1 hPa 0,0 l/m 0 min 0 min 0 W/m 12,9 km/h (3 Bft) 100,00 %
01.06.2023 04:26 12,8 C 11,7 C 8,3 C 89 % 1022,1 hPa 0,0 l/m 0 min 0 min 0 W/m 6,4 km/h (2 Bft) 97,87 %
01.06.2023 04:28 12,8 C 12,2 C 8,3 C 89 % 1022,2 hPa 0,0 l/m 0 min 0 min 0 W/m 12,9 km/h (3 Bft) 97,87 %
01.06.2023 04:30 12,8 C 11,7 C 8,3 C 89 % 1022,1 hPa 0,0 l/m 0 min 0 min 0 W/m 6,4 km/h (2 Bft) 97,87 %
01.06.2023 04:32 12,7 C 11,7 C 8,3 C 89 % 1022,1 hPa 0,0 l/m 0 min 0 min 0 W/m 9,7 km/h (2 Bft) 97,83 %
01.06.2023 04:34 12,7 C 11,7 C 8,3 C 89 % 1022,1 hPa 0,0 l/m 0 min 0 min 0 W/m 9,7 km/h (2 Bft) 95,74 %
01.06.2023 04:36 12,7 C 11,7 C 8,3 C 89 % 1022,1 hPa 0,0 l/m 0 min 0 min 0 W/m 3,2 km/h (1 Bft) 97,87 %
01.06.2023 04:38 12,6 C 11,7 C 8,3 C 89 % 1022,2 hPa 0,0 l/m 0 min 0 min 0 W/m 3,2 km/h (1 Bft) 97,87 %
01.06.2023 04:40 12,6 C 11,7 C 8,3 C 89 % 1022,1 hPa 0,0 l/m 0 min 0 min 0 W/m 9,7 km/h (2 Bft) 97,87 %
01.06.2023 04:42 12,5 C 11,7 C 8,3 C 89 % 1022,2 hPa 0,0 l/m 0 min 0 min 0 W/m 9,7 km/h (2 Bft) 97,87 %
01.06.2023 04:44 12,5 C 11,7 C 8,3 C 89 % 1022,1 hPa 0,0 l/m 0 min 0 min 0 W/m 6,4 km/h (2 Bft) 97,83 %
01.06.2023 04:46 12,4 C 11,7 C 8,3 C 89 % 1022,1 hPa 0,0 l/m 0 min 0 min 0 W/m 16,1 km/h (3 Bft) 97,87 %
01.06.2023 04:48 12,4 C 11,7 C 8,3 C 89 % 1022,1 hPa 0,0 l/m 0 min 0 min 0 W/m 6,4 km/h (2 Bft) 97,87 %
01.06.2023 04:50 12,4 C 11,7 C 8,3 C 90 % 1022,2 hPa 0,0 l/m 0 min 0 min 0 W/m 6,4 km/h (2 Bft) 95,74 %
01.06.2023 04:52 12,3 C 11,7 C 7,8 C 90 % 1022,1 hPa 0,0 l/m 0 min 0 min 0 W/m 9,7 km/h (2 Bft) 97,87 %
01.06.2023 04:54 12,3 C 11,7 C 7,8 C 90 % 1022,2 hPa 0,0 l/m 0 min 0 min 0 W/m 9,7 km/h (2 Bft) 95,74 %
01.06.2023 04:56 12,2 C 11,7 C 8,3 C 90 % 1022,2 hPa 0,0 l/m 0 min 0 min 0 W/m 12,9 km/h (3 Bft) 95,65 %
01.06.2023 04:58 12,2 C 11,1 C 7,8 C 90 % 1022,3 hPa 0,0 l/m 0 min 0 min 0 W/m 6,4 km/h (2 Bft) 97,87 %
01.06.2023 05:00 12,2 C 11,1 C 7,8 C 90 % 1022,2 hPa 0,0 l/m 0 min 0 min 0 W/m 6,4 km/h (2 Bft) 97,87 %
01.06.2023 05:02 12,1 C 11,1 C 7,8 C 90 % 1022,2 hPa 0,0 l/m 0 min 0 min 0 W/m 6,4 km/h (2 Bft) 93,62 %
01.06.2023 05:04 12,1 C 11,1 C 7,8 C 90 % 1022,2 hPa 0,0 l/m 0 min 0 min 0 W/m 6,4 km/h (2 Bft) 95,74 %
01.06.2023 05:06 12,1 C 11,1 C 7,8 C 90 % 1022,2 hPa 0,0 l/m 0 min 0 min 0 W/m 6,4 km/h (2 Bft) 95,74 %
01.06.2023 05:08 12,0 C 11,1 C 7,8 C 90 % 1022,2 hPa 0,0 l/m 0 min 0 min 0 W/m 9,7 km/h (2 Bft) 95,65 %
01.06.2023 05:10 11,9 C 11,1 C 7,8 C 90 % 1022,2 hPa 0,0 l/m 0 min 0 min 0 W/m 9,7 km/h (2 Bft) 97,87 %
01.06.2023 05:12 11,9 C 11,1 C 7,8 C 90 % 1022,2 hPa 0,0 l/m 0 min 0 min 0 W/m 3,2 km/h (1 Bft) 95,74 %
01.06.2023 05:14 11,8 C 11,1 C 7,8 C 90 % 1022,2 hPa 0,0 l/m 0 min 0 min 0 W/m 9,7 km/h (2 Bft) 95,74 %
01.06.2023 05:16 11,8 C 11,1 C 7,8 C 90 % 1022,2 hPa 0,0 l/m 0 min 0 min 0 W/m 6,4 km/h (2 Bft) 97,87 %
01.06.2023 05:18 11,8 C 11,1 C 7,8 C 90 % 1022,2 hPa 0,0 l/m 0 min 0 min 0 W/m 9,7 km/h (2 Bft) 93,62 %
01.06.2023 05:20 11,7 C 11,1 C 7,8 C 91 % 1022,2 hPa 0,0 l/m 0 min 0 min 0 W/m 9,7 km/h (2 Bft) 97,87 %
01.06.2023 05:22 11,7 C 11,1 C 7,2 C 91 % 1022,2 hPa 0,0 l/m 0 min 0 min 0 W/m 9,7 km/h (2 Bft) 97,83 %
01.06.2023 05:24 11,6 C 10,6 C 7,2 C 91 % 1022,2 hPa 0,0 l/m 0 min 0 min 0 W/m 6,4 km/h (2 Bft) 97,87 %
01.06.2023 05:26 11,6 C 10,6 C 7,2 C 91 % 1022,3 hPa 0,0 l/m 0 min 0 min 0 W/m 6,4 km/h (2 Bft) 97,87 %
01.06.2023 05:28 11,6 C 10,6 C 7,2 C 91 % 1022,3 hPa 0,0 l/m 0 min 0 min 1 W/m 9,7 km/h (2 Bft) 97,87 %
01.06.2023 05:30 11,5 C 10,6 C 7,2 C 91 % 1022,2 hPa 0,0 l/m 0 min 0 min 5 W/m 6,4 km/h (2 Bft) 97,87 %
01.06.2023 05:32 11,5 C 10,6 C 7,2 C 91 % 1022,3 hPa 0,0 l/m 0 min 0 min 5 W/m 6,4 km/h (2 Bft) 97,87 %
01.06.2023 05:34 11,4 C 10,6 C 7,2 C 91 % 1022,2 hPa 0,0 l/m 0 min 0 min 5 W/m 12,9 km/h (3 Bft) 97,83 %
01.06.2023 05:36 11,4 C 10,6 C 7,2 C 91 % 1022,2 hPa 0,0 l/m 0 min 0 min 6 W/m 12,9 km/h (3 Bft) 97,92 %
01.06.2023 05:38 11,4 C 10,6 C 7,2 C 91 % 1022,2 hPa 0,0 l/m 0 min 0 min 7 W/m 9,7 km/h (2 Bft) 97,87 %
01.06.2023 05:40 11,3 C 10,6 C 7,2 C 91 % 1022,2 hPa 0,0 l/m 0 min 0 min 7 W/m 9,7 km/h (2 Bft) 95,74 %
01.06.2023 05:42 11,3 C 10,6 C 7,2 C 91 % 1022,3 hPa 0,0 l/m 0 min 0 min 7 W/m 12,9 km/h (3 Bft) 97,87 %
01.06.2023 05:45 11,3 C 10,6 C 7,2 C 91 % 1022,3 hPa 0,0 l/m 0 min 0 min 7 W/m 16,1 km/h (3 Bft) 100,00 %
01.06.2023 05:50 11,3 C 11,1 C 7,8 C 92 % 1022,3 hPa 0,0 l/m 0 min 0 min 9 W/m 6,4 km/h (2 Bft) 97,83 %
01.06.2023 05:52 11,3 C 11,1 C 7,2 C 92 % 1022,3 hPa 0,0 l/m 0 min 0 min 9 W/m 12,9 km/h (3 Bft) 98,11 %
01.06.2023 05:54 11,3 C 11,1 C 7,8 C 92 % 1022,4 hPa 0,0 l/m 0 min 0 min 9 W/m 9,7 km/h (2 Bft) 97,87 %
01.06.2023 05:56 11,3 C 11,1 C 7,8 C 92 % 1022,4 hPa 0,0 l/m 0 min 0 min 9 W/m 16,1 km/h (3 Bft) 98,00 %
01.06.2023 05:58 11,3 C 11,1 C 7,8 C 92 % 1022,4 hPa 0,0 l/m 0 min 0 min 10 W/m 12,9 km/h (3 Bft) 97,87 %
01.06.2023 06:00 11,3 C 11,1 C 7,2 C 92 % 1022,5 hPa 0,0 l/m 0 min 0 min 11 W/m 9,7 km/h (2 Bft) 95,65 %
01.06.2023 06:02 11,3 C 11,1 C 7,2 C 92 % 1022,5 hPa 0,0 l/m 0 min 0 min 12 W/m 12,9 km/h (3 Bft) 97,87 %
01.06.2023 06:04 11,3 C 11,1 C 7,8 C 92 % 1022,5 hPa 0,0 l/m 0 min 0 min 12 W/m 6,4 km/h (2 Bft) 97,62 %
01.06.2023 06:08 11,3 C 11,1 C 7,2 C 92 % 1022,5 hPa 0,0 l/m 0 min 0 min 13 W/m 12,9 km/h (3 Bft) 97,12 %
01.06.2023 06:10 11,3 C 11,1 C 7,8 C 92 % 1022,5 hPa 0,0 l/m 0 min 0 min 14 W/m 6,4 km/h (2 Bft) 95,74 %
01.06.2023 06:12 11,3 C 11,1 C 7,8 C 92 % 1022,5 hPa 0,0 l/m 0 min 0 min 18 W/m 6,4 km/h (2 Bft) 97,83 %
01.06.2023 06:16 11,3 C 11,1 C 7,8 C 92 % 1022,6 hPa 0,0 l/m 0 min 0 min 18 W/m 9,7 km/h (2 Bft) 96,81 %
01.06.2023 06:18 11,3 C 11,1 C 7,8 C 92 % 1022,5 hPa 0,0 l/m 0 min 0 min 18 W/m 6,4 km/h (2 Bft) 97,87 %
01.06.2023 06:20 11,3 C 10,6 C 7,2 C 92 % 1022,6 hPa 0,0 l/m 0 min 0 min 19 W/m 9,7 km/h (2 Bft) 97,87 %
01.06.2023 06:22 11,3 C 11,1 C 7,2 C 91 % 1022,5 hPa 0,0 l/m 0 min 0 min 20 W/m 12,9 km/h (3 Bft) 97,87 %
01.06.2023 06:24 11,3 C 11,1 C 7,2 C 91 % 1022,5 hPa 0,0 l/m 0 min 0 min 23 W/m 9,7 km/h (2 Bft) 97,87 %
01.06.2023 06:26 11,3 C 11,1 C 7,2 C 91 % 1022,6 hPa 0,0 l/m 0 min 0 min 25 W/m 9,7 km/h (2 Bft) 97,83 %
01.06.2023 06:28 11,3 C 11,1 C 7,2 C 91 % 1022,6 hPa 0,0 l/m 0 min 0 min 27 W/m 12,9 km/h (3 Bft) 100,00 %
01.06.2023 06:30 11,2 C 11,1 C 7,2 C 91 % 1022,6 hPa 0,0 l/m 0 min 0 min 28 W/m 12,9 km/h (3 Bft) 100,00 %
01.06.2023 06:32 11,2 C 11,1 C 7,2 C 91 % 1022,7 hPa 0,0 l/m 0 min 0 min 29 W/m 22,5 km/h (4 Bft) 100,00 %
01.06.2023 06:34 11,2 C 11,1 C 7,2 C 91 % 1022,6 hPa 0,0 l/m 0 min 0 min 28 W/m 6,4 km/h (2 Bft) 97,87 %
01.06.2023 06:36 11,2 C 11,1 C 7,2 C 91 % 1022,7 hPa 0,0 l/m 0 min 0 min 28 W/m 12,9 km/h (3 Bft) 100,00 %
01.06.2023 06:38 11,2 C 11,1 C 7,8 C 91 % 1022,7 hPa 0,0 l/m 0 min 0 min 29 W/m 12,9 km/h (3 Bft) 97,87 %
01.06.2023 06:40 11,2 C 11,1 C 7,2 C 91 % 1022,6 hPa 0,0 l/m 0 min 0 min 32 W/m 9,7 km/h (2 Bft) 97,83 %
01.06.2023 06:42 11,2 C 11,1 C 7,2 C 91 % 1022,7 hPa 0,0 l/m 0 min 0 min 33 W/m 6,4 km/h (2 Bft) 100,00 %
01.06.2023 06:44 11,2 C 11,1 C 7,2 C 91 % 1022,7 hPa 0,0 l/m 0 min 0 min 34 W/m 16,1 km/h (3 Bft) 97,87 %
01.06.2023 06:46 11,2 C 11,1 C 7,2 C 91 % 1022,7 hPa 0,0 l/m 0 min 0 min 34 W/m 12,9 km/h (3 Bft) 97,87 %
01.06.2023 06:48 11,2 C 11,1 C 7,2 C 91 % 1022,7 hPa 0,0 l/m 0 min 0 min 38 W/m 6,4 km/h (2 Bft) 97,87 %
01.06.2023 06:50 11,2 C 11,1 C 7,8 C 91 % 1022,7 hPa 0,0 l/m 0 min 0 min 40 W/m 6,4 km/h (2 Bft) 95,74 %
01.06.2023 06:52 11,2 C 11,1 C 7,2 C 91 % 1022,7 hPa 0,0 l/m 0 min 0 min 41 W/m 12,9 km/h (3 Bft) 100,00 %
01.06.2023 06:54 11,3 C 11,1 C 7,8 C 91 % 1022,7 hPa 0,0 l/m 0 min 0 min 43 W/m 9,7 km/h (2 Bft) 95,74 %
01.06.2023 06:56 11,3 C 11,1 C 7,8 C 91 % 1022,7 hPa 0,0 l/m 0 min 0 min 47 W/m 6,4 km/h (2 Bft) 96,30 %
01.06.2023 06:58 11,3 C 11,1 C 7,8 C 91 % 1022,7 hPa 0,0 l/m 0 min 0 min 48 W/m 12,9 km/h (3 Bft) 96,00 %
01.06.2023 07:00 11,3 C 11,1 C 7,8 C 91 % 1022,7 hPa 0,0 l/m 0 min 0 min 52 W/m 6,4 km/h (2 Bft) 97,30 %
01.06.2023 07:02 11,3 C 11,7 C 7,8 C 91 % 1022,7 hPa 0,0 l/m 0 min 0 min 54 W/m 6,4 km/h (2 Bft) 93,62 %
01.06.2023 07:04 11,3 C 11,1 C 7,8 C 91 % 1022,7 hPa 0,0 l/m 0 min 0 min 54 W/m 12,9 km/h (3 Bft) 95,83 %
01.06.2023 07:06 11,3 C 11,1 C 7,8 C 90 % 1022,7 hPa 0,0 l/m 0 min 0 min 55 W/m 12,9 km/h (3 Bft) 94,34 %
01.06.2023 07:08 11,3 C 11,1 C 7,8 C 90 % 1022,7 hPa 0,0 l/m 0 min 0 min 57 W/m 9,7 km/h (2 Bft) 95,74 %
01.06.2023 07:10 11,3 C 11,1 C 7,8 C 90 % 1022,7 hPa 0,0 l/m 0 min 0 min 60 W/m 6,4 km/h (2 Bft) 95,65 %
01.06.2023 07:12 11,3 C 11,1 C 7,8 C 90 % 1022,7 hPa 0,0 l/m 0 min 0 min 65 W/m 12,9 km/h (3 Bft) 94,00 %
01.06.2023 07:14 11,3 C 11,1 C 7,8 C 90 % 1022,7 hPa 0,0 l/m 0 min 0 min 67 W/m 6,4 km/h (2 Bft) 93,62 %
01.06.2023 07:16 11,3 C 11,1 C 7,8 C 90 % 1022,7 hPa 0,0 l/m 0 min 0 min 70 W/m 12,9 km/h (3 Bft) 95,74 %
01.06.2023 07:18 11,3 C 11,1 C 7,8 C 90 % 1022,7 hPa 0,0 l/m 0 min 0 min 72 W/m 6,4 km/h (2 Bft) 95,74 %
01.06.2023 07:20 11,3 C 11,1 C 7,8 C 90 % 1022,7 hPa 0,0 l/m 0 min 0 min 69 W/m 12,9 km/h (3 Bft) 97,87 %
01.06.2023 07:22 11,3 C 11,1 C 7,8 C 90 % 1022,7 hPa 0,0 l/m 0 min 0 min 69 W/m 9,7 km/h (2 Bft) 97,87 %
01.06.2023 07:24 11,3 C 11,1 C 7,8 C 89 % 1022,6 hPa 0,0 l/m 0 min 0 min 72 W/m 6,4 km/h (2 Bft) 97,83 %
01.06.2023 07:26 11,3 C 11,1 C 7,8 C 89 % 1022,7 hPa 0,0 l/m 0 min 0 min 75 W/m 3,2 km/h (1 Bft) 97,87 %
01.06.2023 07:28 11,3 C 11,7 C 7,8 C 89 % 1022,7 hPa 0,0 l/m 0 min 0 min 80 W/m 9,7 km/h (2 Bft) 97,87 %
01.06.2023 07:30 11,4 C 11,7 C 7,8 C 89 % 1022,7 hPa 0,0 l/m 0 min 0 min 85 W/m 9,7 km/h (2 Bft) 97,87 %
01.06.2023 07:32 11,4 C 11,7 C 7,8 C 89 % 1022,7 hPa 0,0 l/m 0 min 0 min 86 W/m 3,2 km/h (1 Bft) 97,87 %
01.06.2023 07:34 11,4 C 11,7 C 7,8 C 89 % 1022,7 hPa 0,0 l/m 0 min 0 min 90 W/m 6,4 km/h (2 Bft) 97,87 %
01.06.2023 07:36 11,4 C 11,7 C 7,8 C 89 % 1022,7 hPa 0,0 l/m 0 min 0 min 103 W/m 9,7 km/h (2 Bft) 97,83 %
01.06.2023 07:38 11,4 C 11,7 C 7,8 C 89 % 1022,7 hPa 0,0 l/m 0 min 0 min 106 W/m 6,4 km/h (2 Bft) 97,87 %
01.06.2023 07:40 11,5 C 11,7 C 7,8 C 89 % 1022,7 hPa 0,0 l/m 0 min 0 min 109 W/m 9,7 km/h (2 Bft) 95,74 %
01.06.2023 07:42 11,4 C 11,7 C 7,8 C 89 % 1022,7 hPa 0,0 l/m 0 min 0 min 113 W/m 6,4 km/h (2 Bft) 100,00 %
01.06.2023 07:44 11,5 C 11,7 C 7,8 C 88 % 1022,7 hPa 0,0 l/m 0 min 0 min 108 W/m 12,9 km/h (3 Bft) 100,00 %
01.06.2023 07:46 11,5 C 11,7 C 7,8 C 88 % 1022,7 hPa 0,0 l/m 0 min 0 min 108 W/m 12,9 km/h (3 Bft) 100,00 %
01.06.2023 07:48 11,5 C 11,7 C 7,8 C 88 % 1022,7 hPa 0,0 l/m 0 min 0 min 109 W/m 12,9 km/h (3 Bft) 100,00 %
01.06.2023 07:50 11,5 C 11,7 C 7,8 C 88 % 1022,7 hPa 0,0 l/m 0 min 0 min 112 W/m 3,2 km/h (1 Bft) 100,00 %
01.06.2023 07:52 11,6 C 11,7 C 7,8 C 88 % 1022,7 hPa 0,0 l/m 0 min 0 min 115 W/m 16,1 km/h (3 Bft) 100,00 %
01.06.2023 07:54 11,5 C 11,7 C 7,8 C 87 % 1022,8 hPa 0,0 l/m 0 min 0 min 113 W/m 12,9 km/h (3 Bft) 100,00 %
01.06.2023 07:56 11,5 C 11,7 C 7,8 C 88 % 1022,8 hPa 0,0 l/m 0 min 0 min 113 W/m 6,4 km/h (2 Bft) 97,87 %
01.06.2023 07:58 11,6 C 11,7 C 7,8 C 88 % 1022,8 hPa 0,0 l/m 0 min 0 min 118 W/m 9,7 km/h (2 Bft) 100,00 %
01.06.2023 08:00 11,6 C 11,7 C 7,8 C 87 % 1022,8 hPa 0,0 l/m 0 min 0 min 119 W/m 16,1 km/h (3 Bft) 97,87 %
01.06.2023 08:02 11,6 C 12,2 C 8,3 C 87 % 1022,8 hPa 0,0 l/m 0 min 0 min 121 W/m 6,4 km/h (2 Bft) 97,87 %
01.06.2023 08:04 11,6 C 12,2 C 8,3 C 87 % 1022,8 hPa 0,0 l/m 0 min 0 min 126 W/m 3,2 km/h (1 Bft) 100,00 %
01.06.2023 08:06 11,6 C 11,7 C 8,3 C 87 % 1022,8 hPa 0,0 l/m 0 min 0 min 128 W/m 9,7 km/h (2 Bft) 100,00 %
01.06.2023 08:08 11,6 C 12,2 C 8,3 C 87 % 1022,8 hPa 0,0 l/m 0 min 0 min 130 W/m 12,9 km/h (3 Bft) 100,00 %
01.06.2023 08:10 11,7 C 12,2 C 7,8 C 87 % 1022,8 hPa 0,0 l/m 0 min 0 min 138 W/m 9,7 km/h (2 Bft) 100,00 %
01.06.2023 08:12 11,7 C 12,2 C 8,3 C 86 % 1022,9 hPa 0,0 l/m 0 min 0 min 136 W/m 9,7 km/h (2 Bft) 100,00 %
01.06.2023 08:14 11,7 C 11,7 C 8,3 C 86 % 1022,8 hPa 0,0 l/m 0 min 0 min 135 W/m 16,1 km/h (3 Bft) 100,00 %
01.06.2023 08:16 11,6 C 11,7 C 7,8 C 86 % 1022,9 hPa 0,0 l/m 0 min 0 min 142 W/m 12,9 km/h (3 Bft) 97,87 %
01.06.2023 08:18 11,6 C 11,7 C 7,8 C 86 % 1022,8 hPa 0,0 l/m 0 min 0 min 149 W/m 12,9 km/h (3 Bft) 100,00 %
01.06.2023 08:20 11,6 C 12,2 C 7,8 C 86 % 1022,8 hPa 0,0 l/m 0 min 0 min 147 W/m 6,4 km/h (2 Bft) 100,00 %
01.06.2023 08:22 11,7 C 12,2 C 8,3 C 86 % 1022,9 hPa 0,0 l/m 0 min 0 min 138 W/m 12,9 km/h (3 Bft) 97,87 %
01.06.2023 08:24 11,7 C 12,2 C 8,3 C 87 % 1022,9 hPa 0,0 l/m 0 min 0 min 145 W/m 6,4 km/h (2 Bft) 100,00 %
01.06.2023 08:26 11,7 C 12,2 C 8,3 C 86 % 1022,9 hPa 0,0 l/m 0 min 0 min 149 W/m 9,7 km/h (2 Bft) 97,87 %
01.06.2023 08:28 11,8 C 12,2 C 8,3 C 86 % 1022,9 hPa 0,0 l/m 0 min 0 min 155 W/m 12,9 km/h (3 Bft) 100,00 %
01.06.2023 08:30 11,8 C 12,2 C 8,3 C 86 % 1023,0 hPa 0,0 l/m 0 min 0 min 162 W/m 6,4 km/h (2 Bft) 100,00 %
01.06.2023 08:32 11,8 C 12,2 C 8,3 C 86 % 1023,0 hPa 0,0 l/m 0 min 0 min 173 W/m 6,4 km/h (2 Bft) 97,83 %
01.06.2023 08:34 11,8 C 12,2 C 8,3 C 86 % 1023,0 hPa 0,0 l/m 0 min 0 min 179 W/m 6,4 km/h (2 Bft) 97,87 %
01.06.2023 08:36 11,8 C 12,2 C 8,3 C 85 % 1022,9 hPa 0,0 l/m 0 min 0 min 192 W/m 12,9 km/h (3 Bft) 97,87 %
01.06.2023 08:38 11,9 C 12,8 C 8,3 C 86 % 1022,9 hPa 0,0 l/m 0 min 0 min 221 W/m 6,4 km/h (2 Bft) 95,74 %
01.06.2023 08:40 11,9 C 12,8 C 8,9 C 86 % 1022,9 hPa 0,0 l/m 2 min 0 min 242 W/m 12,9 km/h (3 Bft) 95,74 %
01.06.2023 08:42 12,0 C 12,8 C 8,9 C 86 % 1022,9 hPa 0,0 l/m 2 min 0 min 253 W/m 9,7 km/h (2 Bft) 95,74 %
01.06.2023 08:44 12,1 C 13,3 C 8,9 C 85 % 1022,9 hPa 0,0 l/m 2 min 0 min 333 W/m 9,7 km/h (2 Bft) 97,87 %
01.06.2023 08:46 12,2 C 13,9 C 8,9 C 85 % 1022,8 hPa 0,0 l/m 2 min 0 min 297 W/m 9,7 km/h (2 Bft) 95,65 %
01.06.2023 08:48 12,2 C 13,9 C 9,4 C 85 % 1022,9 hPa 0,0 l/m 2 min 0 min 298 W/m 12,9 km/h (3 Bft) 95,74 %
01.06.2023 08:50 12,3 C 15,0 C 9,4 C 84 % 1022,8 hPa 0,0 l/m 2 min 0 min 353 W/m 16,1 km/h (3 Bft) 95,74 %
01.06.2023 08:52 12,4 C 16,1 C 10,0 C 85 % 1022,8 hPa 0,0 l/m 2 min 0 min 452 W/m 6,4 km/h (2 Bft) 93,62 %
01.06.2023 08:54 12,7 C 17,2 C 10,6 C 85 % 1022,9 hPa 0,0 l/m 2 min 0 min 417 W/m 12,9 km/h (3 Bft) 95,74 %
01.06.2023 08:56 12,8 C 16,7 C 10,6 C 83 % 1022,9 hPa 0,0 l/m 2 min 0 min 313 W/m 9,7 km/h (2 Bft) 95,74 %
01.06.2023 08:58 12,9 C 15,6 C 10,0 C 83 % 1022,9 hPa 0,0 l/m 2 min 0 min 278 W/m 12,9 km/h (3 Bft) 95,74 %
01.06.2023 09:00 13,0 C 16,1 C 10,0 C 82 % 1022,9 hPa 0,0 l/m 0 min 0 min 168 W/m 12,9 km/h (3 Bft) 95,65 %
01.06.2023 09:02 13,1 C 15,6 C 10,0 C 82 % 1023,0 hPa 0,0 l/m 0 min 0 min 163 W/m 9,7 km/h (2 Bft) 91,49 %
01.06.2023 09:04 13,1 C 15,0 C 9,4 C 82 % 1023,0 hPa 0,0 l/m 0 min 0 min 161 W/m 12,9 km/h (3 Bft) 93,62 %
01.06.2023 09:06 13,0 C 15,0 C 9,4 C 81 % 1023,0 hPa 0,0 l/m 0 min 0 min 156 W/m 6,4 km/h (2 Bft) 95,83 %
01.06.2023 09:08 13,0 C 15,0 C 10,0 C 81 % 1023,0 hPa 0,0 l/m 0 min 0 min 188 W/m 12,9 km/h (3 Bft) 97,14 %
01.06.2023 09:10 13,0 C 15,6 C 10,0 C 81 % 1023,0 hPa 0,0 l/m 0 min 0 min 232 W/m 12,9 km/h (3 Bft) 95,74 %
01.06.2023 09:12 13,1 C 17,2 C 10,6 C 82 % 1022,9 hPa 0,0 l/m 2 min 0 min 465 W/m 6,4 km/h (2 Bft) 97,87 %
01.06.2023 09:14 13,2 C 17,2 C 11,1 C 81 % 1022,9 hPa 0,0 l/m 2 min 0 min 467 W/m 9,7 km/h (2 Bft) 97,87 %
01.06.2023 09:16 13,4 C 17,2 C 11,1 C 80 % 1022,8 hPa 0,0 l/m 2 min 0 min 440 W/m 16,1 km/h (3 Bft) 97,83 %
01.06.2023 09:18 13,6 C 17,8 C 11,1 C 80 % 1022,8 hPa 0,0 l/m 2 min 0 min 465 W/m 12,9 km/h (3 Bft) 97,87 %
01.06.2023 09:20 13,7 C 17,8 C 11,7 C 79 % 1022,9 hPa 0,0 l/m 2 min 0 min 469 W/m 9,7 km/h (2 Bft) 97,87 %
01.06.2023 09:22 13,7 C 18,3 C 11,7 C 79 % 1022,9 hPa 0,0 l/m 2 min 0 min 507 W/m 12,9 km/h (3 Bft) 95,74 %
01.06.2023 09:24 13,8 C 18,9 C 11,7 C 79 % 1022,8 hPa 0,0 l/m 2 min 0 min 535 W/m 22,5 km/h (4 Bft) 100,00 %
01.06.2023 09:26 13,9 C 19,4 C 12,2 C 79 % 1022,8 hPa 0,0 l/m 2 min 0 min 520 W/m 12,9 km/h (3 Bft) 100,00 %
01.06.2023 09:28 14,1 C 18,9 C 12,8 C 78 % 1022,9 hPa 0,0 l/m 2 min 0 min 507 W/m 12,9 km/h (3 Bft) 100,00 %
01.06.2023 09:30 14,1 C 18,3 C 12,8 C 77 % 1022,9 hPa 0,0 l/m 2 min 0 min 531 W/m 16,1 km/h (3 Bft) 100,00 %
01.06.2023 09:32 14,0 C 17,8 C 12,8 C 77 % 1022,9 hPa 0,0 l/m 2 min 0 min 564 W/m 16,1 km/h (3 Bft) 100,00 %
01.06.2023 09:34 14,1 C 18,3 C 12,8 C 78 % 1022,9 hPa 0,0 l/m 2 min 0 min 573 W/m 9,7 km/h (2 Bft) 100,00 %
01.06.2023 09:36 14,3 C 18,3 C 12,8 C 77 % 1022,9 hPa 0,0 l/m 2 min 0 min 579 W/m 16,1 km/h (3 Bft) 100,00 %
01.06.2023 09:38 14,3 C 18,9 C 13,3 C 78 % 1022,9 hPa 0,0 l/m 2 min 0 min 587 W/m 6,4 km/h (2 Bft) 97,87 %
01.06.2023 09:40 14,3 C 17,8 C 13,3 C 77 % 1022,9 hPa 0,0 l/m 2 min 0 min 518 W/m 25,7 km/h (4 Bft) 100,00 %
01.06.2023 09:42 14,3 C 17,8 C 13,9 C 77 % 1022,9 hPa 0,0 l/m 2 min 0 min 579 W/m 22,5 km/h (4 Bft) 100,00 %
01.06.2023 09:44 14,3 C 18,3 C 13,9 C 77 % 1022,9 hPa 0,0 l/m 2 min 0 min 599 W/m 12,9 km/h (3 Bft) 100,00 %
01.06.2023 09:46 14,3 C 18,9 C 13,9 C 77 % 1022,9 hPa 0,0 l/m 2 min 0 min 605 W/m 16,1 km/h (3 Bft) 100,00 %
01.06.2023 09:48 14,3 C 18,3 C 13,9 C 76 % 1022,8 hPa 0,0 l/m 2 min 0 min 608 W/m 12,9 km/h (3 Bft) 97,87 %
01.06.2023 09:50 14,4 C 18,9 C 14,4 C 77 % 1022,9 hPa 0,0 l/m 2 min 0 min 607 W/m 9,7 km/h (2 Bft) 100,00 %
01.06.2023 09:52 14,6 C 18,9 C 14,4 C 77 % 1022,9 hPa 0,0 l/m 2 min 0 min 615 W/m 16,1 km/h (3 Bft) 100,00 %
01.06.2023 09:54 14,8 C 19,4 C 15,0 C 76 % 1022,9 hPa 0,0 l/m 2 min 0 min 620 W/m 16,1 km/h (3 Bft) 97,87 %
01.06.2023 09:56 14,8 C 18,3 C 14,4 C 75 % 1022,9 hPa 0,0 l/m 2 min 0 min 629 W/m 22,5 km/h (4 Bft) 100,00 %
01.06.2023 09:58 14,8 C 18,3 C 15,0 C 75 % 1022,9 hPa 0,0 l/m 2 min 0 min 638 W/m 12,9 km/h (3 Bft) 100,00 %
01.06.2023 10:00 14,8 C 18,3 C 15,0 C 75 % 1022,9 hPa 0,0 l/m 2 min 0 min 600 W/m 16,1 km/h (3 Bft) 97,87 %
01.06.2023 10:02 14,9 C 18,9 C 15,0 C 76 % 1022,9 hPa 0,0 l/m 2 min 0 min 617 W/m 6,4 km/h (2 Bft) 95,74 %
01.06.2023 10:04 15,0 C 19,4 C 15,0 C 76 % 1022,9 hPa 0,0 l/m 2 min 0 min 590 W/m 9,7 km/h (2 Bft) 100,00 %
01.06.2023 10:06 15,1 C 19,4 C 15,0 C 75 % 1022,9 hPa 0,0 l/m 2 min 0 min 619 W/m 16,1 km/h (3 Bft) 98,33 %
01.06.2023 10:08 15,2 C 19,4 C 15,0 C 75 % 1022,9 hPa 0,0 l/m 2 min 0 min 636 W/m 9,7 km/h (2 Bft) 97,14 %
01.06.2023 10:10 15,2 C 18,9 C 15,6 C 74 % 1022,9 hPa 0,0 l/m 2 min 0 min 628 W/m 9,7 km/h (2 Bft) 100,00 %
01.06.2023 10:12 15,2 C 18,9 C 15,6 C 74 % 1022,9 hPa 0,0 l/m 2 min 0 min 626 W/m 12,9 km/h (3 Bft) 100,00 %
01.06.2023 10:14 15,2 C 18,9 C 15,6 C 74 % 1022,8 hPa 0,0 l/m 2 min 0 min 658 W/m 19,3 km/h (3 Bft) 97,87 %
01.06.2023 10:16 15,3 C 18,9 C 15,6 C 74 % 1022,8 hPa 0,0 l/m 2 min 0 min 669 W/m 16,1 km/h (3 Bft) 100,00 %
01.06.2023 10:18 15,4 C 19,4 C 15,0 C 74 % 1022,8 hPa 0,0 l/m 2 min 0 min 661 W/m 12,9 km/h (3 Bft) 97,87 %
01.06.2023 10:20 15,4 C 18,3 C 15,6 C 74 % 1022,8 hPa 0,0 l/m 2 min 0 min 680 W/m 16,1 km/h (3 Bft) 100,00 %
01.06.2023 10:22 15,4 C 18,3 C 15,6 C 74 % 1022,8 hPa 0,0 l/m 2 min 0 min 689 W/m 16,1 km/h (3 Bft) 100,00 %
01.06.2023 10:24 15,5 C 18,3 C 15,0 C 74 % 1022,8 hPa 0,0 l/m 2 min 0 min 681 W/m 16,1 km/h (3 Bft) 100,00 %
01.06.2023 10:26 15,6 C 18,3 C 15,6 C 75 % 1022,8 hPa 0,0 l/m 2 min 0 min 632 W/m 12,9 km/h (3 Bft) 95,65 %
01.06.2023 10:28 15,7 C 17,8 C 15,0 C 74 % 1022,8 hPa 0,0 l/m 2 min 0 min 575 W/m 12,9 km/h (3 Bft) 97,87 %
01.06.2023 10:30 15,8 C 17,2 C 15,0 C 73 % 1022,8 hPa 0,0 l/m 2 min 0 min 574 W/m 19,3 km/h (3 Bft) 100,00 %
01.06.2023 10:32 15,8 C 17,2 C 16,1 C 73 % 1022,7 hPa 0,0 l/m 2 min 0 min 695 W/m 6,4 km/h (2 Bft) 97,87 %
01.06.2023 10:34 15,8 C 16,7 C 16,1 C 73 % 1022,7 hPa 0,0 l/m 2 min 0 min 693 W/m 12,9 km/h (3 Bft) 100,00 %
01.06.2023 10:36 15,7 C 16,7 C 15,6 C 73 % 1022,7 hPa 0,0 l/m 2 min 0 min 684 W/m 12,9 km/h (3 Bft) 95,74 %
01.06.2023 10:38 15,8 C 17,2 C 15,6 C 73 % 1022,8 hPa 0,0 l/m 2 min 0 min 730 W/m 19,3 km/h (3 Bft) 97,87 %
01.06.2023 10:40 15,9 C 17,2 C 15,0 C 72 % 1022,8 hPa 0,0 l/m 2 min 0 min 732 W/m 12,9 km/h (3 Bft) 95,92 %
01.06.2023 10:42 15,9 C 17,8 C 15,6 C 72 % 1022,8 hPa 0,0 l/m 2 min 0 min 742 W/m 6,4 km/h (2 Bft) 97,96 %
01.06.2023 10:44 15,8 C 17,2 C 15,6 C 71 % 1022,7 hPa 0,0 l/m 2 min 0 min 741 W/m 12,9 km/h (3 Bft) 100,00 %
01.06.2023 10:46 15,9 C 17,8 C 15,6 C 72 % 1022,7 hPa 0,0 l/m 2 min 0 min 740 W/m 12,9 km/h (3 Bft) 95,74 %
01.06.2023 10:48 16,0 C 18,3 C 15,0 C 72 % 1022,7 hPa 0,0 l/m 2 min 0 min 747 W/m 9,7 km/h (2 Bft) 96,43 %
01.06.2023 10:50 16,1 C 17,8 C 15,6 C 72 % 1022,7 hPa 0,0 l/m 2 min 0 min 744 W/m 16,1 km/h (3 Bft) 97,87 %
01.06.2023 10:52 16,1 C 17,8 C 15,6 C 71 % 1022,7 hPa 0,0 l/m 2 min 0 min 736 W/m 16,1 km/h (3 Bft) 97,83 %
01.06.2023 10:54 16,1 C 18,3 C 15,0 C 71 % 1022,7 hPa 0,0 l/m 2 min 0 min 727 W/m 6,4 km/h (2 Bft) 97,87 %
01.06.2023 10:56 16,3 C 18,9 C 15,0 C 72 % 1022,6 hPa 0,0 l/m 2 min 0 min 749 W/m 9,7 km/h (2 Bft) 93,62 %
01.06.2023 10:58 16,4 C 18,3 C 14,4 C 71 % 1022,7 hPa 0,0 l/m 2 min 0 min 746 W/m 9,7 km/h (2 Bft) 97,87 %
01.06.2023 11:00 16,4 C 18,3 C 14,4 C 71 % 1022,6 hPa 0,0 l/m 2 min 0 min 762 W/m 6,4 km/h (2 Bft) 97,87 %
01.06.2023 11:02 16,4 C 18,9 C 13,9 C 71 % 1022,6 hPa 0,0 l/m 2 min 0 min 765 W/m 12,9 km/h (3 Bft) 93,62 %
01.06.2023 11:04 16,6 C 18,9 C 13,9 C 71 % 1022,5 hPa 0,0 l/m 2 min 0 min 766 W/m 16,1 km/h (3 Bft) 95,74 %
01.06.2023 11:06 16,6 C 19,4 C 13,9 C 71 % 1022,5 hPa 0,0 l/m 2 min 0 min 777 W/m 16,1 km/h (3 Bft) 96,55 %
01.06.2023 11:08 16,7 C 19,4 C 14,4 C 71 % 1022,5 hPa 0,0 l/m 2 min 0 min 775 W/m 9,7 km/h (2 Bft) 94,29 %
01.06.2023 11:10 16,8 C 20,0 C 15,0 C 71 % 1022,5 hPa 0,0 l/m 2 min 0 min 785 W/m 12,9 km/h (3 Bft) 97,87 %
01.06.2023 11:12 16,9 C 20,0 C 15,0 C 71 % 1022,5 hPa 0,0 l/m 2 min 0 min 776 W/m 9,7 km/h (2 Bft) 91,49 %
01.06.2023 11:14 16,9 C 20,0 C 15,0 C 70 % 1022,4 hPa 0,0 l/m 2 min 0 min 795 W/m 6,4 km/h (2 Bft) 95,74 %
01.06.2023 11:16 16,7 C 18,9 C 15,0 C 69 % 1022,4 hPa 0,0 l/m 2 min 0 min 786 W/m 19,3 km/h (3 Bft) 95,74 %
01.06.2023 11:18 16,7 C 19,4 C 15,0 C 70 % 1022,3 hPa 0,0 l/m 2 min 0 min 802 W/m 12,9 km/h (3 Bft) 95,65 %
01.06.2023 11:20 16,7 C 20,0 C 15,6 C 70 % 1022,4 hPa 0,0 l/m 2 min 0 min 786 W/m 12,9 km/h (3 Bft) 95,74 %
01.06.2023 11:22 16,9 C 20,0 C 16,7 C 70 % 1022,4 hPa 0,0 l/m 2 min 0 min 804 W/m 12,9 km/h (3 Bft) 95,74 %
01.06.2023 11:24 16,9 C 20,0 C 16,7 C 69 % 1022,3 hPa 0,0 l/m 2 min 0 min 780 W/m 12,9 km/h (3 Bft) 95,74 %
01.06.2023 11:26 16,9 C 20,6 C 16,7 C 70 % 1022,3 hPa 0,0 l/m 2 min 0 min 785 W/m 16,1 km/h (3 Bft) 95,74 %
01.06.2023 11:28 17,0 C 20,0 C 17,2 C 70 % 1022,3 hPa 0,0 l/m 2 min 0 min 800 W/m 19,3 km/h (3 Bft) 95,74 %
01.06.2023 11:30 17,0 C 20,0 C 17,8 C 69 % 1022,3 hPa 0,0 l/m 2 min 0 min 808 W/m 9,7 km/h (2 Bft) 93,62 %
01.06.2023 11:32 17,1 C 20,6 C 18,3 C 69 % 1022,3 hPa 0,0 l/m 2 min 0 min 821 W/m 16,1 km/h (3 Bft) 93,48 %
01.06.2023 11:34 17,1 C 20,6 C 18,9 C 68 % 1022,2 hPa 0,0 l/m 2 min 0 min 840 W/m 12,9 km/h (3 Bft) 95,74 %
01.06.2023 11:36 17,2 C 21,1 C 18,9 C 68 % 1022,3 hPa 0,0 l/m 2 min 0 min 847 W/m 6,4 km/h (2 Bft) 95,74 %
01.06.2023 11:38 17,3 C 21,7 C 18,3 C 68 % 1022,2 hPa 0,0 l/m 2 min 0 min 839 W/m 16,1 km/h (3 Bft) 95,74 %
01.06.2023 11:40 17,5 C 22,2 C 18,3 C 68 % 1022,1 hPa 0,0 l/m 2 min 0 min 827 W/m 22,5 km/h (4 Bft) 95,74 %
01.06.2023 11:42 17,5 C 21,1 C 18,9 C 67 % 1022,2 hPa 0,0 l/m 2 min 0 min 839 W/m 16,1 km/h (3 Bft) 95,74 %
01.06.2023 11:44 17,5 C 21,7 C 18,9 C 66 % 1022,2 hPa 0,0 l/m 2 min 0 min 824 W/m 12,9 km/h (3 Bft) 95,65 %
01.06.2023 11:46 17,6 C 22,2 C 17,8 C 66 % 1022,1 hPa 0,0 l/m 2 min 0 min 833 W/m 22,5 km/h (4 Bft) 95,74 %
01.06.2023 11:48 17,7 C 22,2 C 18,3 C 67 % 1022,2 hPa 0,0 l/m 2 min 0 min 855 W/m 12,9 km/h (3 Bft) 93,62 %
01.06.2023 11:50 17,8 C 22,8 C 18,3 C 67 % 1022,2 hPa 0,0 l/m 2 min 0 min 858 W/m 9,7 km/h (2 Bft) 95,74 %
01.06.2023 11:52 17,9 C 22,8 C 17,8 C 66 % 1022,2 hPa 0,0 l/m 2 min 0 min 880 W/m 9,7 km/h (2 Bft) 97,87 %
01.06.2023 11:54 18,1 C 22,8 C 17,8 C 67 % 1022,2 hPa 0,0 l/m 2 min 0 min 812 W/m 19,3 km/h (3 Bft) 97,87 %
01.06.2023 11:56 18,1 C 22,8 C 17,2 C 66 % 1022,2 hPa 0,0 l/m 2 min 0 min 814 W/m 16,1 km/h (3 Bft) 97,87 %
01.06.2023 11:58 18,2 C 23,3 C 17,2 C 65 % 1022,1 hPa 0,0 l/m 2 min 0 min 831 W/m 12,9 km/h (3 Bft) 97,83 %
01.06.2023 12:00 18,2 C 23,3 C 17,2 C 66 % 1022,1 hPa 0,0 l/m 2 min 0 min 867 W/m 9,7 km/h (2 Bft) 97,87 %
01.06.2023 12:02 18,3 C 22,8 C 17,8 C 65 % 1022,2 hPa 0,0 l/m 2 min 0 min 851 W/m 9,7 km/h (2 Bft) 97,87 %
01.06.2023 12:04 18,4 C 22,8 C 17,2 C 65 % 1022,1 hPa 0,0 l/m 2 min 0 min 859 W/m 12,9 km/h (3 Bft) 93,88 %
01.06.2023 12:07 18,5 C 22,8 C 17,2 C 64 % 1022,1 hPa 0,0 l/m 3 min 0 min 858 W/m 12,9 km/h (3 Bft) 93,88 %
01.06.2023 12:08 18,6 C 23,3 C 17,2 C 65 % 1022,1 hPa 0,0 l/m 1 min 0 min 861 W/m 12,9 km/h (3 Bft) 97,92 %
01.06.2023 12:10 18,7 C 23,3 C 17,2 C 64 % 1022,1 hPa 0,0 l/m 2 min 0 min 874 W/m 16,1 km/h (3 Bft) 97,87 %
01.06.2023 12:12 18,7 C 23,3 C 17,8 C 64 % 1022,1 hPa 0,0 l/m 2 min 0 min 887 W/m 16,1 km/h (3 Bft) 97,83 %
01.06.2023 12:14 18,8 C 23,3 C 18,3 C 64 % 1022,0 hPa 0,0 l/m 2 min 0 min 886 W/m 9,7 km/h (2 Bft) 97,87 %
01.06.2023 12:16 18,8 C 22,8 C 18,9 C 63 % 1022,1 hPa 0,0 l/m 2 min 0 min 876 W/m 19,3 km/h (3 Bft) 97,87 %
01.06.2023 12:18 18,6 C 22,2 C 20,0 C 63 % 1022,0 hPa 0,0 l/m 2 min 0 min 887 W/m 12,9 km/h (3 Bft) 97,87 %
01.06.2023 12:20 18,6 C 22,8 C 21,1 C 64 % 1022,0 hPa 0,0 l/m 2 min 0 min 899 W/m 12,9 km/h (3 Bft) 97,87 %
01.06.2023 12:22 18,7 C 23,9 C 21,1 C 65 % 1022,0 hPa 0,0 l/m 2 min 0 min 895 W/m 16,1 km/h (3 Bft) 95,74 %
01.06.2023 12:24 18,8 C 24,4 C 21,7 C 65 % 1022,0 hPa 0,0 l/m 2 min 0 min 902 W/m 12,9 km/h (3 Bft) 94,44 %
01.06.2023 12:26 18,9 C 24,4 C 22,8 C 65 % 1022,0 hPa 0,0 l/m 2 min 0 min 902 W/m 9,7 km/h (2 Bft) 95,74 %
01.06.2023 12:28 19,1 C 25,0 C 23,3 C 64 % 1021,9 hPa 0,0 l/m 2 min 0 min 898 W/m 12,9 km/h (3 Bft) 93,62 %
01.06.2023 12:30 19,1 C 24,4 C 23,3 C 64 % 1021,9 hPa 0,0 l/m 2 min 0 min 903 W/m 12,9 km/h (3 Bft) 97,87 %
01.06.2023 12:32 19,2 C 25,0 C 22,2 C 64 % 1021,9 hPa 0,0 l/m 2 min 0 min 901 W/m 19,3 km/h (3 Bft) 95,74 %
01.06.2023 12:34 19,3 C 25,0 C 22,8 C 63 % 1021,9 hPa 0,0 l/m 2 min 0 min 904 W/m 16,1 km/h (3 Bft) 95,74 %
01.06.2023 12:36 19,3 C 23,9 C 22,8 C 63 % 1021,9 hPa 0,0 l/m 2 min 0 min 908 W/m 19,3 km/h (3 Bft) 97,87 %
01.06.2023 12:38 19,3 C 23,9 C 23,3 C 63 % 1021,8 hPa 0,0 l/m 2 min 0 min 907 W/m 12,9 km/h (3 Bft) 93,48 %
01.06.2023 12:40 19,2 C 23,9 C 23,3 C 64 % 1021,8 hPa 0,0 l/m 2 min 0 min 904 W/m 16,1 km/h (3 Bft) 95,74 %
01.06.2023 12:42 19,2 C 25,0 C 22,8 C 65 % 1021,8 hPa 0,0 l/m 2 min 0 min 900 W/m 16,1 km/h (3 Bft) 95,74 %
01.06.2023 12:44 19,2 C 23,3 C 22,8 C 62 % 1021,8 hPa 0,0 l/m 2 min 0 min 926 W/m 16,1 km/h (3 Bft) 95,74 %
01.06.2023 12:46 19,1 C 23,9 C 22,8 C 62 % 1021,8 hPa 0,0 l/m 2 min 0 min 921 W/m 16,1 km/h (3 Bft) 91,49 %
01.06.2023 12:48 19,1 C 23,9 C 23,9 C 63 % 1021,9 hPa 0,0 l/m 2 min 0 min 919 W/m 22,5 km/h (4 Bft) 95,74 %
01.06.2023 12:50 19,2 C 24,4 C 23,3 C 64 % 1021,9 hPa 0,0 l/m 2 min 0 min 906 W/m 9,7 km/h (2 Bft) 93,48 %
01.06.2023 12:52 19,3 C 25,0 C 23,3 C 64 % 1021,9 hPa 0,0 l/m 2 min 0 min 916 W/m 6,4 km/h (2 Bft) 95,74 %
01.06.2023 12:54 19,6 C 25,6 C 23,3 C 63 % 1021,9 hPa 0,0 l/m 2 min 0 min 914 W/m 6,4 km/h (2 Bft) 95,74 %
01.06.2023 12:56 19,7 C 25,6 C 23,9 C 63 % 1021,9 hPa 0,0 l/m 2 min 0 min 923 W/m 19,3 km/h (3 Bft) 95,74 %
01.06.2023 12:58 19,8 C 25,6 C 23,3 C 63 % 1021,9 hPa 0,0 l/m 2 min 0 min 930 W/m 6,4 km/h (2 Bft) 93,62 %
01.06.2023 13:00 19,9 C 25,6 C 24,4 C 62 % 1021,9 hPa 0,0 l/m 2 min 0 min 926 W/m 6,4 km/h (2 Bft) 97,87 %
01.06.2023 13:02 20,0 C 26,1 C 25,0 C 63 % 1021,8 hPa 0,0 l/m 2 min 0 min 932 W/m 12,9 km/h (3 Bft) 95,74 %
01.06.2023 13:04 20,1 C 25,6 C 23,3 C 61 % 1021,8 hPa 0,0 l/m 2 min 0 min 933 W/m 16,1 km/h (3 Bft) 97,92 %
01.06.2023 13:06 20,2 C 26,1 C 23,9 C 62 % 1021,8 hPa 0,0 l/m 2 min 0 min 934 W/m 12,9 km/h (3 Bft) 97,87 %
01.06.2023 13:08 20,2 C 26,7 C 22,2 C 62 % 1021,8 hPa 0,0 l/m 2 min 0 min 933 W/m 16,1 km/h (3 Bft) 100,00 %
01.06.2023 13:10 20,2 C 26,7 C 22,2 C 61 % 1021,7 hPa 0,0 l/m 2 min 0 min 935 W/m 9,7 km/h (2 Bft) 97,87 %
01.06.2023 13:12 20,2 C 26,1 C 23,3 C 61 % 1021,7 hPa 0,0 l/m 2 min 0 min 929 W/m 16,1 km/h (3 Bft) 97,87 %
01.06.2023 13:14 20,2 C 26,1 C 23,3 C 61 % 1021,8 hPa 0,0 l/m 2 min 0 min 935 W/m 12,9 km/h (3 Bft) 97,92 %
01.06.2023 13:16 20,3 C 25,0 C 23,3 C 61 % 1021,8 hPa 0,0 l/m 2 min 0 min 939 W/m 16,1 km/h (3 Bft) 100,00 %
01.06.2023 13:18 20,3 C 25,6 C 23,3 C 61 % 1021,8 hPa 0,0 l/m 2 min 0 min 936 W/m 9,7 km/h (2 Bft) 100,00 %
01.06.2023 13:20 20,3 C 25,6 C 23,9 C 61 % 1021,7 hPa 0,0 l/m 2 min 0 min 935 W/m 19,3 km/h (3 Bft) 100,00 %
01.06.2023 13:22 20,2 C 25,6 C 24,4 C 61 % 1021,7 hPa 0,0 l/m 2 min 0 min 936 W/m 16,1 km/h (3 Bft) 100,00 %
01.06.2023 13:24 20,3 C 26,1 C 23,9 C 62 % 1021,7 hPa 0,0 l/m 2 min 0 min 933 W/m 12,9 km/h (3 Bft) 100,00 %
01.06.2023 13:26 20,3 C 26,1 C 23,9 C 61 % 1021,6 hPa 0,0 l/m 2 min 0 min 932 W/m 12,9 km/h (3 Bft) 100,00 %
01.06.2023 13:28 20,5 C 26,1 C 24,4 C 62 % 1021,6 hPa 0,0 l/m 2 min 0 min 932 W/m 12,9 km/h (3 Bft) 100,00 %
01.06.2023 13:30 20,6 C 26,7 C 24,4 C 61 % 1021,6 hPa 0,0 l/m 2 min 0 min 935 W/m 16,1 km/h (3 Bft) 100,00 %
01.06.2023 13:32 20,6 C 26,7 C 24,4 C 60 % 1021,6 hPa 0,0 l/m 2 min 0 min 935 W/m 19,3 km/h (3 Bft) 100,00 %
01.06.2023 13:34 20,7 C 26,7 C 25,0 C 60 % 1021,6 hPa 0,0 l/m 2 min 0 min 935 W/m 6,4 km/h (2 Bft) 100,00 %
01.06.2023 13:36 20,6 C 26,1 C 25,6 C 60 % 1021,6 hPa 0,0 l/m 2 min 0 min 937 W/m 12,9 km/h (3 Bft) 100,00 %
01.06.2023 13:38 20,6 C 26,1 C 25,6 C 60 % 1021,5 hPa 0,0 l/m 2 min 0 min 937 W/m 12,9 km/h (3 Bft) 100,00 %
01.06.2023 13:40 20,6 C 26,7 C 25,0 C 60 % 1021,5 hPa 0,0 l/m 2 min 0 min 936 W/m 6,4 km/h (2 Bft) 100,00 %
01.06.2023 13:42 20,6 C 26,7 C 25,0 C 60 % 1021,5 hPa 0,0 l/m 2 min 0 min 938 W/m 16,1 km/h (3 Bft) 100,00 %
01.06.2023 13:44 20,6 C 26,1 C 23,9 C 59 % 1021,5 hPa 0,0 l/m 2 min 0 min 932 W/m 12,9 km/h (3 Bft) 97,83 %
01.06.2023 13:46 20,6 C 26,1 C 25,0 C 60 % 1021,5 hPa 0,0 l/m 2 min 0 min 931 W/m 16,1 km/h (3 Bft) 93,62 %
01.06.2023 13:48 20,6 C 26,1 C 24,4 C 61 % 1021,5 hPa 0,0 l/m 2 min 0 min 935 W/m 12,9 km/h (3 Bft) 95,74 %
01.06.2023 13:50 20,6 C 26,1 C 23,3 C 60 % 1021,5 hPa 0,0 l/m 2 min 0 min 931 W/m 19,3 km/h (3 Bft) 97,87 %
01.06.2023 13:52 20,6 C 26,1 C 22,8 C 60 % 1021,5 hPa 0,0 l/m 2 min 0 min 929 W/m 9,7 km/h (2 Bft) 97,87 %
01.06.2023 13:54 20,7 C 26,7 C 21,1 C 60 % 1021,5 hPa 0,0 l/m 2 min 0 min 931 W/m 22,5 km/h (4 Bft) 97,87 %
01.06.2023 13:56 20,7 C 27,2 C 20,6 C 60 % 1021,5 hPa 0,0 l/m 2 min 0 min 933 W/m 12,9 km/h (3 Bft) 97,87 %
01.06.2023 13:58 20,7 C 26,1 C 20,0 C 59 % 1021,5 hPa 0,0 l/m 2 min 0 min 930 W/m 12,9 km/h (3 Bft) 97,83 %
01.06.2023 14:00 20,7 C 26,1 C 18,9 C 58 % 1021,4 hPa 0,0 l/m 2 min 0 min 928 W/m 12,9 km/h (3 Bft) 97,87 %
01.06.2023 14:02 20,7 C 26,1 C 18,9 C 58 % 1021,4 hPa 0,0 l/m 2 min 0 min 932 W/m 16,1 km/h (3 Bft) 97,87 %
01.06.2023 14:04 20,8 C 27,2 C 18,3 C 59 % 1021,4 hPa 0,0 l/m 2 min 0 min 935 W/m 12,9 km/h (3 Bft) 95,92 %
01.06.2023 14:06 20,9 C 26,7 C 18,3 C 59 % 1021,3 hPa 0,0 l/m 2 min 0 min 931 W/m 19,3 km/h (3 Bft) 95,74 %
01.06.2023 14:08 20,9 C 27,2 C 17,8 C 59 % 1021,4 hPa 0,0 l/m 2 min 0 min 931 W/m 16,1 km/h (3 Bft) 100,00 %
01.06.2023 14:10 21,0 C 27,2 C 17,8 C 59 % 1021,4 hPa 0,0 l/m 2 min 0 min 926 W/m 12,9 km/h (3 Bft) 95,74 %
01.06.2023 14:12 21,1 C 27,8 C 17,8 C 59 % 1021,4 hPa 0,0 l/m 2 min 0 min 926 W/m 12,9 km/h (3 Bft) 97,87 %
01.06.2023 14:14 21,1 C 27,2 C 17,8 C 58 % 1021,5 hPa 0,0 l/m 2 min 0 min 928 W/m 16,1 km/h (3 Bft) 97,83 %
01.06.2023 14:16 21,2 C 27,8 C 17,8 C 58 % 1021,4 hPa 0,0 l/m 2 min 0 min 929 W/m 6,4 km/h (2 Bft) 97,87 %
01.06.2023 14:18 21,3 C 27,8 C 17,8 C 58 % 1021,4 hPa 0,0 l/m 2 min 0 min 924 W/m 12,9 km/h (3 Bft) 95,74 %
01.06.2023 14:20 21,3 C 27,8 C 17,8 C 58 % 1021,4 hPa 0,0 l/m 2 min 0 min 921 W/m 12,9 km/h (3 Bft) 97,87 %
01.06.2023 14:22 21,4 C 27,2 C 17,2 C 57 % 1021,4 hPa 0,0 l/m 2 min 0 min 922 W/m 19,3 km/h (3 Bft) 97,87 %
01.06.2023 14:24 21,2 C 26,7 C 17,2 C 59 % 1021,4 hPa 0,0 l/m 2 min 0 min 917 W/m 22,5 km/h (4 Bft) 97,87 %
01.06.2023 14:26 21,1 C 26,7 C 17,2 C 58 % 1021,4 hPa 0,0 l/m 2 min 0 min 919 W/m 16,1 km/h (3 Bft) 100,00 %
01.06.2023 14:28 21,1 C 26,1 C 17,2 C 57 % 1021,4 hPa 0,0 l/m 2 min 0 min 920 W/m 12,9 km/h (3 Bft) 100,00 %
01.06.2023 14:30 21,0 C 26,7 C 17,2 C 58 % 1021,3 hPa 0,0 l/m 2 min 0 min 920 W/m 19,3 km/h (3 Bft) 97,87 %
01.06.2023 14:32 21,0 C 27,2 C 17,2 C 59 % 1021,3 hPa 0,0 l/m 2 min 0 min 920 W/m 9,7 km/h (2 Bft) 100,00 %
01.06.2023 14:34 21,1 C 27,2 C 17,2 C 59 % 1021,2 hPa 0,0 l/m 2 min 0 min 914 W/m 16,1 km/h (3 Bft) 100,00 %
01.06.2023 14:36 21,2 C 27,2 C 17,2 C 59 % 1021,3 hPa 0,0 l/m 2 min 0 min 910 W/m 12,9 km/h (3 Bft) 100,00 %
01.06.2023 14:38 21,2 C 26,1 C 17,2 C 58 % 1021,3 hPa 0,0 l/m 2 min 0 min 909 W/m 16,1 km/h (3 Bft) 100,00 %
01.06.2023 14:40 21,2 C 26,7 C 17,8 C 59 % 1021,3 hPa 0,0 l/m 2 min 0 min 909 W/m 9,7 km/h (2 Bft) 95,74 %
01.06.2023 14:42 21,2 C 25,6 C 17,2 C 58 % 1021,3 hPa 0,0 l/m 2 min 0 min 907 W/m 22,5 km/h (4 Bft) 97,83 %
01.06.2023 14:44 21,2 C 26,7 C 17,2 C 59 % 1021,3 hPa 0,0 l/m 2 min 0 min 904 W/m 16,1 km/h (3 Bft) 97,87 %
01.06.2023 14:46 21,2 C 26,7 C 17,2 C 59 % 1021,3 hPa 0,0 l/m 2 min 0 min 901 W/m 9,7 km/h (2 Bft) 97,87 %
01.06.2023 14:48 21,3 C 27,2 C 17,2 C 59 % 1021,3 hPa 0,0 l/m 2 min 0 min 900 W/m 22,5 km/h (4 Bft) 97,87 %
01.06.2023 14:50 21,3 C 26,7 C 17,2 C 59 % 1021,2 hPa 0,0 l/m 2 min 0 min 896 W/m 16,1 km/h (3 Bft) 97,87 %
01.06.2023 14:52 21,4 C 27,2 C 17,8 C 59 % 1021,2 hPa 0,0 l/m 2 min 0 min 893 W/m 6,4 km/h (2 Bft) 97,87 %
01.06.2023 14:54 21,6 C 26,7 C 17,2 C 59 % 1021,3 hPa 0,0 l/m 2 min 0 min 890 W/m 12,9 km/h (3 Bft) 97,83 %
01.06.2023 14:56 21,6 C 26,1 C 17,2 C 58 % 1021,3 hPa 0,0 l/m 2 min 0 min 885 W/m 19,3 km/h (3 Bft) 95,74 %
01.06.2023 14:58 21,7 C 27,2 C 17,2 C 59 % 1021,2 hPa 0,0 l/m 2 min 0 min 885 W/m 9,7 km/h (2 Bft) 97,87 %
01.06.2023 15:00 21,9 C 27,2 C 17,2 C 59 % 1021,2 hPa 0,0 l/m 2 min 0 min 884 W/m 19,3 km/h (3 Bft) 97,87 %
01.06.2023 15:02 21,9 C 27,2 C 17,2 C 58 % 1021,2 hPa 0,0 l/m 2 min 0 min 882 W/m 12,9 km/h (3 Bft) 93,62 %
01.06.2023 15:04 22,0 C 27,2 C 17,8 C 58 % 1021,2 hPa 0,0 l/m 2 min 0 min 883 W/m 12,9 km/h (3 Bft) 97,92 %
01.06.2023 15:06 22,1 C 28,3 C 17,2 C 57 % 1021,2 hPa 0,0 l/m 2 min 0 min 885 W/m 12,9 km/h (3 Bft) 96,55 %
01.06.2023 15:08 22,2 C 27,8 C 17,2 C 57 % 1021,2 hPa 0,0 l/m 2 min 0 min 879 W/m 19,3 km/h (3 Bft) 100,00 %
01.06.2023 15:10 22,3 C 27,2 C 17,2 C 57 % 1021,2 hPa 0,0 l/m 2 min 0 min 877 W/m 16,1 km/h (3 Bft) 97,87 %
01.06.2023 15:12 22,3 C 27,8 C 17,2 C 57 % 1021,1 hPa 0,0 l/m 2 min 0 min 871 W/m 19,3 km/h (3 Bft) 97,87 %
01.06.2023 15:14 22,3 C 26,7 C 17,2 C 56 % 1021,1 hPa 0,0 l/m 2 min 0 min 869 W/m 16,1 km/h (3 Bft) 97,87 %
01.06.2023 15:16 22,2 C 26,1 C 17,2 C 56 % 1021,1 hPa 0,0 l/m 2 min 0 min 868 W/m 12,9 km/h (3 Bft) 97,87 %
01.06.2023 15:18 22,2 C 26,7 C 17,2 C 58 % 1021,1 hPa 0,0 l/m 2 min 0 min 864 W/m 16,1 km/h (3 Bft) 100,00 %
01.06.2023 15:20 22,3 C 27,8 C 17,2 C 58 % 1021,1 hPa 0,0 l/m 2 min 0 min 862 W/m 9,7 km/h (2 Bft) 100,00 %
01.06.2023 15:22 22,3 C 27,2 C 17,8 C 57 % 1021,1 hPa 0,0 l/m 2 min 0 min 859 W/m 16,1 km/h (3 Bft) 97,83 %
01.06.2023 15:24 22,4 C 27,8 C 17,8 C 57 % 1021,1 hPa 0,0 l/m 2 min 0 min 860 W/m 12,9 km/h (3 Bft) 100,00 %
01.06.2023 15:26 22,4 C 27,2 C 17,2 C 57 % 1021,0 hPa 0,0 l/m 2 min 0 min 853 W/m 19,3 km/h (3 Bft) 97,87 %
01.06.2023 15:28 22,5 C 27,2 C 17,2 C 57 % 1021,1 hPa 0,0 l/m 2 min 0 min 850 W/m 9,7 km/h (2 Bft) 100,00 %
01.06.2023 15:30 22,6 C 27,2 C 17,8 C 57 % 1021,1 hPa 0,0 l/m 2 min 0 min 848 W/m 16,1 km/h (3 Bft) 100,00 %
01.06.2023 15:32 22,5 C 27,2 C 17,8 C 57 % 1021,1 hPa 0,0 l/m 2 min 0 min 843 W/m 16,1 km/h (3 Bft) 100,00 %
01.06.2023 15:34 22,6 C 27,8 C 17,8 C 57 % 1021,1 hPa 0,0 l/m 2 min 0 min 838 W/m 9,7 km/h (2 Bft) 95,74 %
01.06.2023 15:36 22,6 C 27,2 C 17,8 C 57 % 1021,1 hPa 0,0 l/m 2 min 0 min 839 W/m 12,9 km/h (3 Bft) 97,83 %
01.06.2023 15:38 22,6 C 27,8 C 17,8 C 56 % 1021,0 hPa 0,0 l/m 2 min 0 min 839 W/m 12,9 km/h (3 Bft) 97,87 %
01.06.2023 15:40 22,6 C 28,3 C 17,8 C 56 % 1021,0 hPa 0,0 l/m 2 min 0 min 837 W/m 9,7 km/h (2 Bft) 97,87 %
01.06.2023 15:42 22,6 C 28,3 C 17,2 C 56 % 1021,0 hPa 0,0 l/m 2 min 0 min 833 W/m 12,9 km/h (3 Bft) 97,87 %
01.06.2023 15:44 22,6 C 27,2 C 17,2 C 55 % 1021,0 hPa 0,0 l/m 2 min 0 min 828 W/m 16,1 km/h (3 Bft) 97,87 %
01.06.2023 15:46 22,6 C 27,8 C 17,2 C 56 % 1021,0 hPa 0,0 l/m 2 min 0 min 820 W/m 22,5 km/h (4 Bft) 97,87 %
01.06.2023 15:48 22,5 C 27,2 C 17,2 C 56 % 1021,0 hPa 0,0 l/m 2 min 0 min 820 W/m 19,3 km/h (3 Bft) 97,87 %
01.06.2023 15:50 22,3 C 26,7 C 17,2 C 56 % 1021,0 hPa 0,0 l/m 2 min 0 min 819 W/m 19,3 km/h (3 Bft) 97,83 %
01.06.2023 15:52 22,3 C 26,7 C 17,2 C 57 % 1021,0 hPa 0,0 l/m 2 min 0 min 818 W/m 16,1 km/h (3 Bft) 95,74 %
01.06.2023 15:54 22,3 C 26,7 C 17,2 C 55 % 1021,0 hPa 0,0 l/m 2 min 0 min 816 W/m 19,3 km/h (3 Bft) 95,74 %
01.06.2023 15:56 22,3 C 26,1 C 17,2 C 57 % 1021,0 hPa 0,0 l/m 2 min 0 min 810 W/m 19,3 km/h (3 Bft) 95,74 %
01.06.2023 15:58 22,2 C 26,7 C 17,2 C 57 % 1021,0 hPa 0,0 l/m 2 min 0 min 803 W/m 12,9 km/h (3 Bft) 97,87 %
01.06.2023 16:00 22,2 C 27,2 C 17,2 C 56 % 1020,9 hPa 0,0 l/m 2 min 0 min 803 W/m 9,7 km/h (2 Bft) 95,74 %
01.06.2023 16:02 22,2 C 26,7 C 17,2 C 56 % 1020,9 hPa 0,0 l/m 2 min 0 min 800 W/m 19,3 km/h (3 Bft) 97,87 %
01.06.2023 16:04 22,2 C 27,2 C 17,2 C 56 % 1020,9 hPa 0,0 l/m 2 min 0 min 797 W/m 9,7 km/h (2 Bft) 98,11 %
01.06.2023 16:06 22,3 C 27,8 C 17,2 C 57 % 1020,9 hPa 0,0 l/m 2 min 0 min 790 W/m 16,1 km/h (3 Bft) 98,00 %
01.06.2023 16:08 22,3 C 27,2 C 17,2 C 56 % 1020,9 hPa 0,0 l/m 2 min 0 min 789 W/m 12,9 km/h (3 Bft) 97,87 %
01.06.2023 16:10 22,2 C 26,1 C 17,2 C 55 % 1020,9 hPa 0,0 l/m 2 min 0 min 787 W/m 29,0 km/h (5 Bft) 97,87 %
01.06.2023 16:12 22,1 C 26,7 C 17,2 C 56 % 1020,9 hPa 0,0 l/m 2 min 0 min 783 W/m 19,3 km/h (3 Bft) 95,74 %
01.06.2023 16:14 22,1 C 26,7 C 17,2 C 57 % 1020,9 hPa 0,0 l/m 2 min 0 min 774 W/m 16,1 km/h (3 Bft) 95,92 %
01.06.2023 16:16 22,1 C 27,2 C 17,2 C 57 % 1020,8 hPa 0,0 l/m 2 min 0 min 772 W/m 19,3 km/h (3 Bft) 94,44 %
01.06.2023 16:18 21,9 C 25,6 C 17,2 C 56 % 1020,8 hPa 0,0 l/m 2 min 0 min 771 W/m 19,3 km/h (3 Bft) 94,83 %
01.06.2023 16:20 21,9 C 26,1 C 17,2 C 57 % 1020,7 hPa 0,0 l/m 2 min 0 min 765 W/m 9,7 km/h (2 Bft) 95,74 %
01.06.2023 16:22 21,9 C 26,7 C 17,2 C 57 % 1020,7 hPa 0,0 l/m 2 min 0 min 761 W/m 12,9 km/h (3 Bft) 93,62 %
01.06.2023 16:24 21,9 C 26,1 C 17,2 C 56 % 1020,7 hPa 0,0 l/m 2 min 0 min 758 W/m 16,1 km/h (3 Bft) 100,00 %
01.06.2023 16:26 21,9 C 26,1 C 17,2 C 56 % 1020,7 hPa 0,0 l/m 2 min 0 min 758 W/m 12,9 km/h (3 Bft) 93,62 %
01.06.2023 16:28 21,9 C 26,7 C 17,2 C 57 % 1020,7 hPa 0,0 l/m 2 min 0 min 753 W/m 16,1 km/h (3 Bft) 95,74 %
01.06.2023 16:30 21,9 C 27,2 C 17,8 C 57 % 1020,7 hPa 0,0 l/m 2 min 0 min 750 W/m 12,9 km/h (3 Bft) 95,74 %
01.06.2023 16:32 21,9 C 26,7 C 17,8 C 57 % 1020,7 hPa 0,0 l/m 2 min 0 min 741 W/m 16,1 km/h (3 Bft) 97,83 %
01.06.2023 16:34 22,0 C 27,2 C 17,8 C 57 % 1020,6 hPa 0,0 l/m 2 min 0 min 736 W/m 22,5 km/h (4 Bft) 95,74 %
01.06.2023 16:36 22,0 C 26,7 C 17,8 C 57 % 1020,6 hPa 0,0 l/m 2 min 0 min 733 W/m 19,3 km/h (3 Bft) 97,87 %
01.06.2023 16:38 22,1 C 26,1 C 17,8 C 57 % 1020,6 hPa 0,0 l/m 2 min 0 min 731 W/m 16,1 km/h (3 Bft) 97,87 %
01.06.2023 16:40 22,1 C 26,7 C 17,8 C 58 % 1020,6 hPa 0,0 l/m 2 min 0 min 724 W/m 16,1 km/h (3 Bft) 95,74 %
01.06.2023 16:42 22,2 C 26,7 C 17,8 C 57 % 1020,5 hPa 0,0 l/m 2 min 0 min 718 W/m 19,3 km/h (3 Bft) 95,74 %
01.06.2023 16:44 22,2 C 27,2 C 17,8 C 57 % 1020,6 hPa 0,0 l/m 2 min 0 min 717 W/m 12,9 km/h (3 Bft) 91,30 %
01.06.2023 16:46 22,2 C 27,8 C 17,8 C 57 % 1020,6 hPa 0,0 l/m 2 min 0 min 709 W/m 16,1 km/h (3 Bft) 95,74 %
01.06.2023 16:48 22,2 C 26,7 C 17,8 C 57 % 1020,5 hPa 0,0 l/m 2 min 0 min 704 W/m 16,1 km/h (3 Bft) 95,74 %
01.06.2023 16:50 22,2 C 26,7 C 17,8 C 58 % 1020,5 hPa 0,0 l/m 2 min 0 min 700 W/m 19,3 km/h (3 Bft) 95,74 %
01.06.2023 16:52 22,2 C 27,2 C 18,3 C 58 % 1020,5 hPa 0,0 l/m 2 min 0 min 696 W/m 12,9 km/h (3 Bft) 95,74 %
01.06.2023 16:54 22,1 C 26,7 C 17,8 C 56 % 1020,5 hPa 0,0 l/m 2 min 0 min 690 W/m 19,3 km/h (3 Bft) 95,74 %
01.06.2023 16:56 22,2 C 27,2 C 18,3 C 57 % 1020,4 hPa 0,0 l/m 2 min 0 min 684 W/m 12,9 km/h (3 Bft) 97,87 %
01.06.2023 16:58 22,2 C 27,8 C 18,3 C 56 % 1020,4 hPa 0,0 l/m 2 min 0 min 681 W/m 12,9 km/h (3 Bft) 97,83 %
01.06.2023 17:00 22,2 C 27,2 C 18,3 C 57 % 1020,4 hPa 0,0 l/m 2 min 0 min 677 W/m 19,3 km/h (3 Bft) 97,87 %
01.06.2023 17:02 22,3 C 27,8 C 18,3 C 57 % 1020,3 hPa 0,0 l/m 2 min 0 min 672 W/m 12,9 km/h (3 Bft) 97,87 %
01.06.2023 17:04 22,3 C 27,2 C 18,3 C 57 % 1020,3 hPa 0,0 l/m 2 min 0 min 669 W/m 12,9 km/h (3 Bft) 97,92 %
01.06.2023 17:06 22,2 C 26,1 C 17,8 C 57 % 1020,3 hPa 0,0 l/m 2 min 0 min 660 W/m 19,3 km/h (3 Bft) 98,31 %
01.06.2023 17:08 22,1 C 26,1 C 17,8 C 57 % 1020,3 hPa 0,0 l/m 2 min 0 min 661 W/m 16,1 km/h (3 Bft) 97,14 %
01.06.2023 17:10 22,1 C 26,1 C 18,3 C 57 % 1020,3 hPa 0,0 l/m 2 min 0 min 658 W/m 19,3 km/h (3 Bft) 97,87 %
01.06.2023 17:12 22,2 C 26,7 C 18,3 C 57 % 1020,3 hPa 0,0 l/m 2 min 0 min 651 W/m 35,4 km/h (5 Bft) 97,83 %
01.06.2023 17:14 22,2 C 26,7 C 18,3 C 58 % 1020,3 hPa 0,0 l/m 2 min 0 min 646 W/m 29,0 km/h (5 Bft) 97,87 %
01.06.2023 17:16 22,3 C 26,7 C 18,3 C 57 % 1020,2 hPa 0,0 l/m 2 min 0 min 641 W/m 22,5 km/h (4 Bft) 100,00 %
01.06.2023 17:18 22,3 C 26,7 C 18,3 C 58 % 1020,3 hPa 0,0 l/m 2 min 0 min 636 W/m 12,9 km/h (3 Bft) 100,00 %
01.06.2023 17:20 22,3 C 26,7 C 18,3 C 58 % 1020,2 hPa 0,0 l/m 2 min 0 min 629 W/m 12,9 km/h (3 Bft) 100,00 %
01.06.2023 17:22 22,4 C 27,2 C 18,9 C 57 % 1020,2 hPa 0,0 l/m 2 min 0 min 621 W/m 25,7 km/h (4 Bft) 100,00 %
01.06.2023 17:24 22,5 C 27,2 C 18,9 C 57 % 1020,1 hPa 0,0 l/m 2 min 0 min 616 W/m 29,0 km/h (5 Bft) 97,87 %
01.06.2023 17:26 22,4 C 26,7 C 18,3 C 57 % 1020,1 hPa 0,0 l/m 2 min 0 min 614 W/m 9,7 km/h (2 Bft) 97,83 %
01.06.2023 17:28 22,4 C 27,2 C 18,9 C 57 % 1020,2 hPa 0,0 l/m 2 min 0 min 606 W/m 16,1 km/h (3 Bft) 100,00 %
01.06.2023 17:30 22,4 C 26,7 C 18,3 C 57 % 1020,2 hPa 0,0 l/m 2 min 0 min 601 W/m 12,9 km/h (3 Bft) 100,00 %
01.06.2023 17:32 22,3 C 27,2 C 18,9 C 58 % 1020,1 hPa 0,0 l/m 2 min 0 min 598 W/m 22,5 km/h (4 Bft) 100,00 %
01.06.2023 17:34 22,2 C 27,2 C 18,9 C 56 % 1020,1 hPa 0,0 l/m 2 min 0 min 591 W/m 19,3 km/h (3 Bft) 100,00 %
01.06.2023 17:36 22,1 C 26,7 C 18,3 C 57 % 1020,1 hPa 0,0 l/m 2 min 0 min 585 W/m 12,9 km/h (3 Bft) 100,00 %
01.06.2023 17:38 22,1 C 27,2 C 18,9 C 58 % 1020,1 hPa 0,0 l/m 2 min 0 min 578 W/m 16,1 km/h (3 Bft) 100,00 %
01.06.2023 17:40 22,2 C 27,2 C 18,9 C 58 % 1020,2 hPa 0,0 l/m 2 min 0 min 576 W/m 16,1 km/h (3 Bft) 100,00 %
01.06.2023 17:42 22,2 C 26,7 C 18,9 C 58 % 1020,1 hPa 0,0 l/m 2 min 0 min 573 W/m 12,9 km/h (3 Bft) 100,00 %
01.06.2023 17:44 22,2 C 26,7 C 18,3 C 57 % 1020,1 hPa 0,0 l/m 2 min 0 min 570 W/m 12,9 km/h (3 Bft) 100,00 %
01.06.2023 17:46 22,2 C 26,7 C 18,9 C 58 % 1020,0 hPa 0,0 l/m 2 min 0 min 568 W/m 6,4 km/h (2 Bft) 100,00 %
01.06.2023 17:48 22,3 C 27,2 C 18,9 C 58 % 1020,0 hPa 0,0 l/m 2 min 0 min 566 W/m 16,1 km/h (3 Bft) 100,00 %
01.06.2023 17:50 22,4 C 27,2 C 19,4 C 58 % 1020,0 hPa 0,0 l/m 2 min 0 min 558 W/m 16,1 km/h (3 Bft) 100,00 %
01.06.2023 17:52 22,5 C 27,8 C 19,4 C 58 % 1019,9 hPa 0,0 l/m 2 min 0 min 561 W/m 6,4 km/h (2 Bft) 97,83 %
01.06.2023 17:54 22,6 C 26,7 C 18,9 C 57 % 1019,9 hPa 0,0 l/m 2 min 0 min 567 W/m 12,9 km/h (3 Bft) 100,00 %
01.06.2023 17:56 22,6 C 26,7 C 18,9 C 57 % 1019,9 hPa 0,0 l/m 2 min 0 min 553 W/m 12,9 km/h (3 Bft) 100,00 %
01.06.2023 17:58 22,6 C 27,2 C 18,9 C 58 % 1019,9 hPa 0,0 l/m 2 min 0 min 576 W/m 12,9 km/h (3 Bft) 100,00 %
01.06.2023 18:00 22,7 C 27,2 C 18,9 C 57 % 1019,9 hPa 0,0 l/m 2 min 0 min 581 W/m 12,9 km/h (3 Bft) 100,00 %
01.06.2023 18:02 22,6 C 26,7 C 18,9 C 57 % 1019,9 hPa 0,0 l/m 2 min 0 min 592 W/m 16,1 km/h (3 Bft) 100,00 %
01.06.2023 18:04 22,5 C 27,2 C 19,4 C 57 % 1019,9 hPa 0,0 l/m 2 min 0 min 591 W/m 9,7 km/h (2 Bft) 97,92 %
01.06.2023 18:07 22,6 C 27,8 C 19,4 C 57 % 1019,8 hPa 0,0 l/m 3 min 0 min 598 W/m 12,9 km/h (3 Bft) 97,92 %
01.06.2023 18:08 22,6 C 27,8 C 18,9 C 57 % 1019,8 hPa 0,0 l/m 1 min 0 min 590 W/m 12,9 km/h (3 Bft) 100,00 %
01.06.2023 18:10 22,6 C 27,2 C 18,9 C 57 % 1019,8 hPa 0,0 l/m 2 min 0 min 573 W/m 12,9 km/h (3 Bft) 100,00 %
01.06.2023 18:12 22,7 C 27,2 C 19,4 C 56 % 1019,8 hPa 0,0 l/m 2 min 0 min 451 W/m 9,7 km/h (2 Bft) 100,00 %
01.06.2023 18:14 22,7 C 27,2 C 19,4 C 56 % 1019,8 hPa 0,0 l/m 2 min 0 min 429 W/m 16,1 km/h (3 Bft) 100,00 %
01.06.2023 18:16 22,7 C 26,7 C 18,9 C 56 % 1019,8 hPa 0,0 l/m 2 min 0 min 410 W/m 16,1 km/h (3 Bft) 100,00 %
01.06.2023 18:18 22,6 C 25,0 C 18,3 C 56 % 1019,7 hPa 0,0 l/m 2 min 0 min 364 W/m 12,9 km/h (3 Bft) 100,00 %
01.06.2023 18:20 22,4 C 24,4 C 18,3 C 57 % 1019,7 hPa 0,0 l/m 2 min 0 min 297 W/m 12,9 km/h (3 Bft) 100,00 %
01.06.2023 18:22 22,4 C 25,6 C 18,9 C 57 % 1019,7 hPa 0,0 l/m 2 min 0 min 388 W/m 9,7 km/h (2 Bft) 100,00 %
01.06.2023 18:24 22,3 C 26,1 C 18,9 C 57 % 1019,7 hPa 0,0 l/m 2 min 0 min 493 W/m 16,1 km/h (3 Bft) 100,00 %
01.06.2023 18:26 22,2 C 26,1 C 18,3 C 57 % 1019,7 hPa 0,0 l/m 2 min 0 min 479 W/m 6,4 km/h (2 Bft) 97,87 %
01.06.2023 18:28 22,2 C 26,1 C 18,9 C 58 % 1019,7 hPa 0,0 l/m 2 min 0 min 463 W/m 19,3 km/h (3 Bft) 100,00 %
01.06.2023 18:30 22,1 C 26,7 C 18,9 C 57 % 1019,6 hPa 0,0 l/m 2 min 0 min 451 W/m 12,9 km/h (3 Bft) 97,87 %
01.06.2023 18:32 22,1 C 26,7 C 18,9 C 57 % 1019,7 hPa 0,0 l/m 2 min 0 min 438 W/m 12,9 km/h (3 Bft) 97,83 %
01.06.2023 18:34 22,1 C 26,1 C 18,9 C 57 % 1019,6 hPa 0,0 l/m 2 min 0 min 425 W/m 22,5 km/h (4 Bft) 100,00 %
01.06.2023 18:36 22,1 C 27,2 C 18,9 C 58 % 1019,6 hPa 0,0 l/m 2 min 0 min 414 W/m 6,4 km/h (2 Bft) 97,87 %
01.06.2023 18:38 22,2 C 27,8 C 18,9 C 57 % 1019,6 hPa 0,0 l/m 2 min 0 min 407 W/m 9,7 km/h (2 Bft) 100,00 %
01.06.2023 18:40 22,2 C 27,2 C 18,9 C 57 % 1019,6 hPa 0,0 l/m 2 min 0 min 400 W/m 19,3 km/h (3 Bft) 97,87 %
01.06.2023 18:42 22,2 C 27,2 C 18,9 C 56 % 1019,6 hPa 0,0 l/m 2 min 0 min 391 W/m 12,9 km/h (3 Bft) 97,87 %
01.06.2023 18:44 22,2 C 26,1 C 18,3 C 56 % 1019,6 hPa 0,0 l/m 2 min 0 min 381 W/m 19,3 km/h (3 Bft) 100,00 %
01.06.2023 18:46 22,1 C 26,7 C 18,9 C 57 % 1019,6 hPa 0,0 l/m 2 min 0 min 377 W/m 22,5 km/h (4 Bft) 95,65 %
01.06.2023 18:48 22,1 C 26,1 C 18,9 C 57 % 1019,6 hPa 0,0 l/m 2 min 0 min 370 W/m 12,9 km/h (3 Bft) 93,62 %
01.06.2023 18:50 22,1 C 25,6 C 18,3 C 57 % 1019,6 hPa 0,0 l/m 2 min 0 min 364 W/m 25,7 km/h (4 Bft) 95,74 %
01.06.2023 18:52 21,9 C 25,6 C 18,3 C 57 % 1019,6 hPa 0,0 l/m 2 min 0 min 357 W/m 12,9 km/h (3 Bft) 91,49 %
01.06.2023 18:54 21,9 C 26,1 C 18,3 C 57 % 1019,7 hPa 0,0 l/m 2 min 0 min 350 W/m 12,9 km/h (3 Bft) 93,62 %
01.06.2023 18:56 21,8 C 25,6 C 18,3 C 58 % 1019,6 hPa 0,0 l/m 2 min 0 min 341 W/m 16,1 km/h (3 Bft) 93,62 %
01.06.2023 18:58 21,7 C 25,6 C 18,3 C 59 % 1019,6 hPa 0,0 l/m 2 min 0 min 336 W/m 16,1 km/h (3 Bft) 93,62 %
01.06.2023 19:00 21,6 C 25,6 C 18,3 C 58 % 1019,7 hPa 0,0 l/m 2 min 0 min 330 W/m 12,9 km/h (3 Bft) 93,48 %
01.06.2023 19:02 21,4 C 26,1 C 17,8 C 59 % 1019,6 hPa 0,0 l/m 2 min 0 min 323 W/m 22,5 km/h (4 Bft) 91,49 %
01.06.2023 19:04 21,3 C 25,6 C 17,8 C 59 % 1019,7 hPa 0,0 l/m 2 min 0 min 316 W/m 16,1 km/h (3 Bft) 93,75 %
01.06.2023 19:06 21,3 C 25,0 C 17,2 C 59 % 1019,5 hPa 0,0 l/m 2 min 0 min 311 W/m 19,3 km/h (3 Bft) 95,74 %
01.06.2023 19:08 21,2 C 25,0 C 17,2 C 59 % 1019,5 hPa 0,0 l/m 2 min 0 min 304 W/m 12,9 km/h (3 Bft) 91,49 %
01.06.2023 19:10 21,1 C 25,0 C 17,2 C 60 % 1019,6 hPa 0,0 l/m 2 min 0 min 298 W/m 12,9 km/h (3 Bft) 91,49 %
01.06.2023 19:12 21,1 C 24,4 C 16,7 C 60 % 1019,5 hPa 0,0 l/m 2 min 0 min 292 W/m 16,1 km/h (3 Bft) 93,62 %
01.06.2023 19:14 21,0 C 25,0 C 16,7 C 61 % 1019,6 hPa 0,0 l/m 2 min 0 min 284 W/m 9,7 km/h (2 Bft) 93,48 %
01.06.2023 19:16 21,0 C 25,0 C 16,7 C 61 % 1019,5 hPa 0,0 l/m 2 min 0 min 279 W/m 12,9 km/h (3 Bft) 93,62 %
01.06.2023 19:18 20,9 C 24,4 C 16,7 C 61 % 1019,5 hPa 0,0 l/m 2 min 0 min 271 W/m 29,0 km/h (5 Bft) 91,49 %
01.06.2023 19:20 20,9 C 23,9 C 16,1 C 62 % 1019,5 hPa 0,0 l/m 2 min 0 min 265 W/m 22,5 km/h (4 Bft) 93,62 %
01.06.2023 19:22 20,8 C 23,9 C 16,1 C 63 % 1019,5 hPa 0,0 l/m 2 min 0 min 260 W/m 12,9 km/h (3 Bft) 96,00 %
01.06.2023 19:24 20,7 C 23,3 C 16,1 C 63 % 1019,5 hPa 0,0 l/m 2 min 0 min 253 W/m 12,9 km/h (3 Bft) 95,74 %
01.06.2023 19:26 20,6 C 22,8 C 16,1 C 64 % 1019,5 hPa 0,0 l/m 2 min 0 min 245 W/m 6,4 km/h (2 Bft) 95,65 %
01.06.2023 19:28 20,4 C 22,2 C 15,6 C 64 % 1019,5 hPa 0,0 l/m 2 min 0 min 237 W/m 19,3 km/h (3 Bft) 97,87 %
01.06.2023 19:30 20,3 C 21,1 C 15,6 C 64 % 1019,6 hPa 0,0 l/m 2 min 0 min 231 W/m 12,9 km/h (3 Bft) 95,74 %
01.06.2023 19:32 20,1 C 20,0 C 15,6 C 64 % 1019,6 hPa 0,0 l/m 2 min 0 min 227 W/m 19,3 km/h (3 Bft) 97,87 %
01.06.2023 19:34 19,9 C 20,0 C 15,6 C 65 % 1019,5 hPa 0,0 l/m 2 min 0 min 220 W/m 16,1 km/h (3 Bft) 97,87 %
01.06.2023 19:36 19,7 C 19,4 C 15,0 C 66 % 1019,6 hPa 0,0 l/m 2 min 0 min 215 W/m 16,1 km/h (3 Bft) 97,87 %
01.06.2023 19:38 19,6 C 18,9 C 15,0 C 66 % 1019,6 hPa 0,0 l/m 2 min 0 min 209 W/m 19,3 km/h (3 Bft) 95,74 %
01.06.2023 19:40 19,4 C 18,9 C 15,0 C 67 % 1019,6 hPa 0,0 l/m 2 min 0 min 202 W/m 19,3 km/h (3 Bft) 97,83 %
01.06.2023 19:42 19,2 C 18,9 C 14,4 C 67 % 1019,7 hPa 0,0 l/m 2 min 0 min 195 W/m 12,9 km/h (3 Bft) 100,00 %
01.06.2023 19:44 19,2 C 18,9 C 15,0 C 68 % 1019,7 hPa 0,0 l/m 2 min 0 min 189 W/m 12,9 km/h (3 Bft) 100,00 %
01.06.2023 19:46 19,1 C 18,9 C 15,0 C 69 % 1019,7 hPa 0,0 l/m 2 min 0 min 181 W/m 16,1 km/h (3 Bft) 100,00 %
01.06.2023 19:48 18,9 C 18,9 C 14,4 C 69 % 1019,7 hPa 0,0 l/m 2 min 0 min 162 W/m 19,3 km/h (3 Bft) 100,00 %
01.06.2023 19:50 18,9 C 18,3 C 14,4 C 69 % 1019,6 hPa 0,0 l/m 0 min 0 min 101 W/m 12,9 km/h (3 Bft) 100,00 %
01.06.2023 19:52 18,8 C 18,3 C 14,4 C 70 % 1019,7 hPa 0,0 l/m 0 min 0 min 65 W/m 12,9 km/h (3 Bft) 100,00 %
01.06.2023 19:54 18,8 C 18,3 C 14,4 C 70 % 1019,7 hPa 0,0 l/m 0 min 0 min 59 W/m 9,7 km/h (2 Bft) 100,00 %
01.06.2023 19:56 18,7 C 18,3 C 14,4 C 70 % 1019,7 hPa 0,0 l/m 0 min 0 min 58 W/m 12,9 km/h (3 Bft) 100,00 %
01.06.2023 19:58 18,6 C 18,3 C 14,4 C 70 % 1019,7 hPa 0,0 l/m 0 min 0 min 56 W/m 16,1 km/h (3 Bft) 100,00 %
01.06.2023 20:00 18,6 C 18,3 C 14,4 C 70 % 1019,7 hPa 0,0 l/m 0 min 0 min 56 W/m 19,3 km/h (3 Bft) 100,00 %
01.06.2023 20:02 18,4 C 18,3 C 13,9 C 70 % 1019,7 hPa 0,0 l/m 0 min 0 min 54 W/m 12,9 km/h (3 Bft) 100,00 %
01.06.2023 20:04 18,4 C 17,8 C 13,9 C 70 % 1019,8 hPa 0,0 l/m 0 min 0 min 54 W/m 9,7 km/h (2 Bft) 100,00 %
01.06.2023 20:06 18,3 C 17,8 C 13,9 C 70 % 1019,7 hPa 0,0 l/m 0 min 0 min 52 W/m 19,3 km/h (3 Bft) 100,00 %
01.06.2023 20:08 18,2 C 17,8 C 13,9 C 70 % 1019,7 hPa 0,0 l/m 0 min 0 min 51 W/m 22,5 km/h (4 Bft) 97,14 %
01.06.2023 20:10 18,2 C 17,8 C 13,9 C 71 % 1019,8 hPa 0,0 l/m 0 min 0 min 50 W/m 12,9 km/h (3 Bft) 100,00 %
01.06.2023 20:12 18,1 C 17,2 C 13,9 C 71 % 1019,8 hPa 0,0 l/m 0 min 0 min 49 W/m 29,0 km/h (5 Bft) 100,00 %
01.06.2023 20:14 18,0 C 17,2 C 13,9 C 71 % 1019,8 hPa 0,0 l/m 0 min 0 min 47 W/m 9,7 km/h (2 Bft) 100,00 %
01.06.2023 20:16 17,9 C 17,2 C 13,9 C 71 % 1019,8 hPa 0,0 l/m 0 min 0 min 46 W/m 16,1 km/h (3 Bft) 100,00 %
01.06.2023 20:18 17,8 C 17,2 C 13,3 C 71 % 1019,8 hPa 0,0 l/m 0 min 0 min 45 W/m 19,3 km/h (3 Bft) 100,00 %
01.06.2023 20:20 17,7 C 17,2 C 13,3 C 71 % 1019,9 hPa 0,0 l/m 0 min 0 min 44 W/m 16,1 km/h (3 Bft) 100,00 %
01.06.2023 20:22 17,7 C 17,2 C 13,3 C 71 % 1019,8 hPa 0,0 l/m 0 min 0 min 42 W/m 16,1 km/h (3 Bft) 100,00 %
01.06.2023 20:24 17,6 C 16,7 C 13,3 C 71 % 1019,8 hPa 0,0 l/m 0 min 0 min 41 W/m 12,9 km/h (3 Bft) 100,00 %
01.06.2023 20:26 17,6 C 16,7 C 13,3 C 72 % 1019,8 hPa 0,0 l/m 0 min 0 min 40 W/m 19,3 km/h (3 Bft) 97,83 %
01.06.2023 20:28 17,4 C 16,7 C 13,3 C 72 % 1019,8 hPa 0,0 l/m 0 min 0 min 39 W/m 12,9 km/h (3 Bft) 97,87 %
01.06.2023 20:30 17,3 C 16,7 C 12,8 C 72 % 1019,9 hPa 0,0 l/m 0 min 0 min 39 W/m 16,1 km/h (3 Bft) 100,00 %
01.06.2023 20:32 17,3 C 16,7 C 12,8 C 72 % 1019,9 hPa 0,0 l/m 0 min 0 min 37 W/m 16,1 km/h (3 Bft) 97,87 %
01.06.2023 20:34 17,2 C 16,7 C 12,8 C 72 % 1019,9 hPa 0,0 l/m 0 min 0 min 35 W/m 16,1 km/h (3 Bft) 100,00 %
01.06.2023 20:36 17,1 C 16,7 C 12,8 C 73 % 1019,9 hPa 0,0 l/m 0 min 0 min 34 W/m 16,1 km/h (3 Bft) 100,00 %
01.06.2023 20:38 17,1 C 16,1 C 12,8 C 72 % 1019,8 hPa 0,0 l/m 0 min 0 min 33 W/m 19,3 km/h (3 Bft) 97,83 %
01.06.2023 20:40 17,0 C 16,1 C 12,8 C 73 % 1019,9 hPa 0,0 l/m 0 min 0 min 32 W/m 9,7 km/h (2 Bft) 100,00 %
01.06.2023 20:42 16,9 C 16,1 C 12,8 C 72 % 1019,9 hPa 0,0 l/m 0 min 0 min 31 W/m 22,5 km/h (4 Bft) 100,00 %
01.06.2023 20:44 16,9 C 16,1 C 12,8 C 73 % 1019,8 hPa 0,0 l/m 0 min 0 min 30 W/m 12,9 km/h (3 Bft) 100,00 %
01.06.2023 20:46 16,8 C 16,1 C 12,8 C 73 % 1019,8 hPa 0,0 l/m 0 min 0 min 28 W/m 9,7 km/h (2 Bft) 97,87 %
01.06.2023 20:48 16,7 C 16,1 C 12,8 C 73 % 1019,9 hPa 0,0 l/m 0 min 0 min 28 W/m 12,9 km/h (3 Bft) 97,87 %
01.06.2023 20:50 16,7 C 16,1 C 12,2 C 73 % 1019,8 hPa 0,0 l/m 0 min 0 min 26 W/m 19,3 km/h (3 Bft) 97,87 %
01.06.2023 20:52 16,6 C 15,6 C 12,2 C 73 % 1019,9 hPa 0,0 l/m 0 min 0 min 25 W/m 16,1 km/h (3 Bft) 95,65 %
01.06.2023 20:54 16,5 C 15,6 C 12,2 C 73 % 1019,8 hPa 0,0 l/m 0 min 0 min 25 W/m 25,7 km/h (4 Bft) 97,87 %
01.06.2023 20:56 16,4 C 15,6 C 12,2 C 73 % 1019,8 hPa 0,0 l/m 0 min 0 min 24 W/m 25,7 km/h (4 Bft) 95,74 %
01.06.2023 20:58 16,3 C 15,6 C 12,2 C 73 % 1019,9 hPa 0,0 l/m 0 min 0 min 23 W/m 19,3 km/h (3 Bft) 97,87 %
01.06.2023 21:00 16,3 C 15,6 C 12,2 C 74 % 1019,9 hPa 0,0 l/m 0 min 0 min 22 W/m 6,4 km/h (2 Bft) 97,87 %
01.06.2023 21:02 16,2 C 15,6 C 12,2 C 74 % 1019,9 hPa 0,0 l/m 0 min 0 min 21 W/m 6,4 km/h (2 Bft) 95,74 %
01.06.2023 21:04 16,2 C 15,6 C 12,2 C 74 % 1019,9 hPa 0,0 l/m 0 min 0 min 19 W/m 9,7 km/h (2 Bft) 95,74 %
01.06.2023 21:06 16,2 C 15,6 C 12,2 C 73 % 1019,9 hPa 0,0 l/m 0 min 0 min 19 W/m 12,9 km/h (3 Bft) 95,00 %
01.06.2023 21:08 16,1 C 15,6 C 11,7 C 73 % 1020,0 hPa 0,0 l/m 0 min 0 min 18 W/m 9,7 km/h (2 Bft) 97,14 %
01.06.2023 21:10 16,1 C 15,6 C 11,7 C 73 % 1019,9 hPa 0,0 l/m 0 min 0 min 18 W/m 12,9 km/h (3 Bft) 97,87 %
01.06.2023 21:12 16,0 C 15,6 C 11,7 C 73 % 1020,0 hPa 0,0 l/m 0 min 0 min 16 W/m 12,9 km/h (3 Bft) 98,00 %
01.06.2023 21:14 15,9 C 15,0 C 11,7 C 73 % 1020,0 hPa 0,0 l/m 0 min 0 min 16 W/m 12,9 km/h (3 Bft) 97,87 %
01.06.2023 21:16 15,9 C 15,0 C 11,7 C 73 % 1020,0 hPa 0,0 l/m 0 min 0 min 14 W/m 9,7 km/h (2 Bft) 97,83 %
01.06.2023 21:18 15,8 C 15,0 C 11,7 C 74 % 1020,0 hPa 0,0 l/m 0 min 0 min 14 W/m 16,1 km/h (3 Bft) 100,00 %
01.06.2023 21:20 15,8 C 15,0 C 11,7 C 74 % 1020,0 hPa 0,0 l/m 0 min 0 min 12 W/m 16,1 km/h (3 Bft) 100,00 %
01.06.2023 21:22 15,8 C 15,0 C 11,7 C 74 % 1020,1 hPa 0,0 l/m 0 min 0 min 12 W/m 16,1 km/h (3 Bft) 100,00 %
01.06.2023 21:24 15,7 C 15,0 C 11,7 C 73 % 1020,1 hPa 0,0 l/m 0 min 0 min 11 W/m 9,7 km/h (2 Bft) 100,00 %
01.06.2023 21:26 15,7 C 15,0 C 11,7 C 73 % 1020,1 hPa 0,0 l/m 0 min 0 min 11 W/m 6,4 km/h (2 Bft) 97,87 %
01.06.2023 21:28 15,7 C 15,0 C 11,7 C 73 % 1020,2 hPa 0,0 l/m 0 min 0 min 9 W/m 9,7 km/h (2 Bft) 100,00 %
01.06.2023 21:30 15,6 C 15,0 C 11,1 C 73 % 1020,2 hPa 0,0 l/m 0 min 0 min 9 W/m 12,9 km/h (3 Bft) 95,74 %
01.06.2023 21:32 15,6 C 15,0 C 11,7 C 74 % 1020,2 hPa 0,0 l/m 0 min 0 min 7 W/m 12,9 km/h (3 Bft) 97,87 %
01.06.2023 21:34 15,6 C 15,0 C 11,7 C 74 % 1020,2 hPa 0,0 l/m 0 min 0 min 7 W/m 6,4 km/h (2 Bft) 95,65 %
01.06.2023 21:36 15,6 C 15,0 C 11,1 C 73 % 1020,2 hPa 0,0 l/m 0 min 0 min 6 W/m 22,5 km/h (4 Bft) 95,74 %
01.06.2023 21:38 15,5 C 15,0 C 11,1 C 74 % 1020,3 hPa 0,0 l/m 0 min 0 min 5 W/m 12,9 km/h (3 Bft) 94,34 %
01.06.2023 21:40 15,4 C 14,4 C 11,1 C 74 % 1020,2 hPa 0,0 l/m 0 min 0 min 5 W/m 12,9 km/h (3 Bft) 96,00 %
01.06.2023 21:42 15,4 C 14,4 C 11,1 C 74 % 1020,2 hPa 0,0 l/m 0 min 0 min 3 W/m 12,9 km/h (3 Bft) 94,74 %
01.06.2023 21:44 15,3 C 14,4 C 11,1 C 74 % 1020,3 hPa 0,0 l/m 0 min 0 min 0 W/m 12,9 km/h (3 Bft) 94,83 %
01.06.2023 21:46 15,3 C 14,4 C 11,1 C 74 % 1020,2 hPa 0,0 l/m 0 min 0 min 0 W/m 9,7 km/h (2 Bft) 94,44 %
01.06.2023 21:48 15,3 C 14,4 C 11,1 C 74 % 1020,3 hPa 0,0 l/m 0 min 0 min 0 W/m 3,2 km/h (1 Bft) 95,65 %
01.06.2023 21:50 15,3 C 14,4 C 11,1 C 74 % 1020,2 hPa 0,0 l/m 0 min 0 min 0 W/m 6,4 km/h (2 Bft) 93,62 %
01.06.2023 21:52 15,3 C 14,4 C 11,1 C 74 % 1020,3 hPa 0,0 l/m 0 min 0 min 0 W/m 16,1 km/h (3 Bft) 95,74 %
01.06.2023 21:54 15,2 C 14,4 C 11,1 C 74 % 1020,3 hPa 0,0 l/m 0 min 0 min 0 W/m 9,7 km/h (2 Bft) 97,87 %
01.06.2023 21:56 15,2 C 14,4 C 11,1 C 74 % 1020,3 hPa 0,0 l/m 0 min 0 min 0 W/m 9,7 km/h (2 Bft) 93,62 %
01.06.2023 21:58 15,2 C 14,4 C 11,1 C 75 % 1020,3 hPa 0,0 l/m 0 min 0 min 0 W/m 12,9 km/h (3 Bft) 93,62 %
01.06.2023 22:00 15,1 C 14,4 C 11,1 C 75 % 1020,3 hPa 0,0 l/m 0 min 0 min 0 W/m 16,1 km/h (3 Bft) 93,62 %
01.06.2023 22:02 15,1 C 14,4 C 11,1 C 75 % 1020,4 hPa 0,0 l/m 0 min 0 min 0 W/m 12,9 km/h (3 Bft) 93,48 %
01.06.2023 22:04 15,0 C 14,4 C 10,6 C 75 % 1020,3 hPa 0,0 l/m 0 min 0 min 0 W/m 12,9 km/h (3 Bft) 93,62 %
01.06.2023 22:06 14,9 C 13,9 C 10,6 C 75 % 1020,4 hPa 0,0 l/m 0 min 0 min 0 W/m 9,7 km/h (2 Bft) 96,67 %
01.06.2023 22:08 14,9 C 13,9 C 10,6 C 75 % 1020,4 hPa 0,0 l/m 0 min 0 min 0 W/m 9,7 km/h (2 Bft) 94,29 %
01.06.2023 22:10 14,9 C 13,9 C 10,6 C 76 % 1020,4 hPa 0,0 l/m 0 min 0 min 0 W/m 9,7 km/h (2 Bft) 95,74 %
01.06.2023 22:12 14,8 C 13,9 C 10,6 C 76 % 1020,4 hPa 0,0 l/m 0 min 0 min 0 W/m 9,7 km/h (2 Bft) 93,62 %
01.06.2023 22:14 14,8 C 13,9 C 10,6 C 76 % 1020,4 hPa 0,0 l/m 0 min 0 min 0 W/m 9,7 km/h (2 Bft) 91,49 %
01.06.2023 22:16 14,8 C 13,9 C 10,6 C 76 % 1020,5 hPa 0,0 l/m 0 min 0 min 0 W/m 16,1 km/h (3 Bft) 93,48 %
01.06.2023 22:18 14,8 C 13,9 C 10,6 C 76 % 1020,4 hPa 0,0 l/m 0 min 0 min 0 W/m 12,9 km/h (3 Bft) 95,74 %
01.06.2023 22:20 14,7 C 13,9 C 10,6 C 76 % 1020,5 hPa 0,0 l/m 0 min 0 min 0 W/m 6,4 km/h (2 Bft) 95,74 %
01.06.2023 22:22 14,7 C 13,9 C 10,6 C 76 % 1020,5 hPa 0,0 l/m 0 min 0 min 0 W/m 9,7 km/h (2 Bft) 95,74 %
01.06.2023 22:24 14,6 C 13,9 C 10,6 C 76 % 1020,5 hPa 0,0 l/m 0 min 0 min 0 W/m 9,7 km/h (2 Bft) 95,74 %
01.06.2023 22:26 14,6 C 13,9 C 10,6 C 76 % 1020,4 hPa 0,0 l/m 0 min 0 min 0 W/m 12,9 km/h (3 Bft) 97,87 %
01.06.2023 22:28 14,5 C 13,3 C 10,0 C 76 % 1020,5 hPa 0,0 l/m 0 min 0 min 0 W/m 12,9 km/h (3 Bft) 95,74 %
01.06.2023 22:30 14,4 C 13,3 C 10,0 C 77 % 1020,4 hPa 0,0 l/m 0 min 0 min 0 W/m 12,9 km/h (3 Bft) 97,83 %
01.06.2023 22:32 14,3 C 13,3 C 10,0 C 77 % 1020,4 hPa 0,0 l/m 0 min 0 min 0 W/m 9,7 km/h (2 Bft) 97,87 %
01.06.2023 22:34 14,3 C 13,3 C 10,0 C 77 % 1020,5 hPa 0,0 l/m 0 min 0 min 0 W/m 12,9 km/h (3 Bft) 97,87 %
01.06.2023 22:36 14,3 C 13,3 C 10,0 C 77 % 1020,4 hPa 0,0 l/m 0 min 0 min 0 W/m 6,4 km/h (2 Bft) 95,74 %
01.06.2023 22:38 14,2 C 13,3 C 10,0 C 77 % 1020,4 hPa 0,0 l/m 0 min 0 min 0 W/m 16,1 km/h (3 Bft) 95,74 %
01.06.2023 22:40 14,1 C 13,3 C 10,0 C 77 % 1020,5 hPa 0,0 l/m 0 min 0 min 0 W/m 9,7 km/h (2 Bft) 97,87 %
01.06.2023 22:42 14,1 C 13,3 C 10,0 C 77 % 1020,4 hPa 0,0 l/m 0 min 0 min 0 W/m 9,7 km/h (2 Bft) 97,83 %
01.06.2023 22:44 14,0 C 13,3 C 10,0 C 77 % 1020,4 hPa 0,0 l/m 0 min 0 min 0 W/m 9,7 km/h (2 Bft) 97,87 %
01.06.2023 22:46 13,9 C 13,3 C 10,0 C 78 % 1020,4 hPa 0,0 l/m 0 min 0 min 0 W/m 9,7 km/h (2 Bft) 95,74 %
01.06.2023 22:48 13,9 C 12,8 C 9,4 C 77 % 1020,4 hPa 0,0 l/m 0 min 0 min 0 W/m 12,9 km/h (3 Bft) 95,74 %
01.06.2023 22:50 13,8 C 12,8 C 9,4 C 78 % 1020,4 hPa 0,0 l/m 0 min 0 min 0 W/m 16,1 km/h (3 Bft) 95,74 %
01.06.2023 22:52 13,8 C 12,8 C 9,4 C 78 % 1020,4 hPa 0,0 l/m 0 min 0 min 0 W/m 9,7 km/h (2 Bft) 97,87 %
01.06.2023 22:54 13,8 C 12,8 C 9,4 C 78 % 1020,4 hPa 0,0 l/m 0 min 0 min 0 W/m 12,9 km/h (3 Bft) 97,87 %
01.06.2023 22:56 13,7 C 12,8 C 9,4 C 78 % 1020,4 hPa 0,0 l/m 0 min 0 min 0 W/m 9,7 km/h (2 Bft) 97,83 %
01.06.2023 22:58 13,7 C 12,8 C 9,4 C 78 % 1020,4 hPa 0,0 l/m 0 min 0 min 0 W/m 16,1 km/h (3 Bft) 97,87 %
01.06.2023 23:00 13,7 C 12,8 C 9,4 C 78 % 1020,4 hPa 0,0 l/m 0 min 0 min 0 W/m 9,7 km/h (2 Bft) 95,74 %
01.06.2023 23:02 13,6 C 12,8 C 9,4 C 78 % 1020,5 hPa 0,0 l/m 0 min 0 min 0 W/m 9,7 km/h (2 Bft) 95,74 %
01.06.2023 23:04 13,6 C 12,8 C 9,4 C 78 % 1020,5 hPa 0,0 l/m 0 min 0 min 0 W/m 9,7 km/h (2 Bft) 100,00 %
01.06.2023 23:06 13,6 C 12,8 C 9,4 C 78 % 1020,4 hPa 0,0 l/m 0 min 0 min 0 W/m 12,9 km/h (3 Bft) 97,87 %
01.06.2023 23:08 13,5 C 12,8 C 9,4 C 78 % 1020,4 hPa 0,0 l/m 0 min 0 min 0 W/m 12,9 km/h (3 Bft) 98,11 %
01.06.2023 23:10 13,4 C 12,8 C 9,4 C 78 % 1020,5 hPa 0,0 l/m 0 min 0 min 0 W/m 9,7 km/h (2 Bft) 100,00 %
01.06.2023 23:12 13,4 C 12,8 C 9,4 C 78 % 1020,5 hPa 0,0 l/m 0 min 0 min 0 W/m 16,1 km/h (3 Bft) 97,87 %
01.06.2023 23:14 13,4 C 12,8 C 9,4 C 78 % 1020,5 hPa 0,0 l/m 0 min 0 min 0 W/m 12,9 km/h (3 Bft) 100,00 %
01.06.2023 23:16 13,3 C 12,8 C 9,4 C 79 % 1020,5 hPa 0,0 l/m 0 min 0 min 0 W/m 9,7 km/h (2 Bft) 100,00 %
01.06.2023 23:18 13,3 C 12,8 C 9,4 C 79 % 1020,6 hPa 0,0 l/m 0 min 0 min 0 W/m 6,4 km/h (2 Bft) 97,87 %
01.06.2023 23:20 13,3 C 12,8 C 9,4 C 79 % 1020,6 hPa 0,0 l/m 0 min 0 min 0 W/m 19,3 km/h (3 Bft) 95,83 %
01.06.2023 23:22 13,3 C 12,8 C 8,9 C 79 % 1020,6 hPa 0,0 l/m 0 min 0 min 0 W/m 12,9 km/h (3 Bft) 97,37 %
01.06.2023 23:24 13,3 C 12,2 C 8,9 C 79 % 1020,6 hPa 0,0 l/m 0 min 0 min 0 W/m 12,9 km/h (3 Bft) 97,87 %
01.06.2023 23:26 13,2 C 12,2 C 8,9 C 79 % 1020,6 hPa 0,0 l/m 0 min 0 min 0 W/m 19,3 km/h (3 Bft) 100,00 %
01.06.2023 23:28 13,1 C 12,2 C 8,9 C 79 % 1020,7 hPa 0,0 l/m 0 min 0 min 0 W/m 12,9 km/h (3 Bft) 100,00 %
01.06.2023 23:30 13,1 C 12,2 C 8,9 C 79 % 1020,7 hPa 0,0 l/m 0 min 0 min 0 W/m 9,7 km/h (2 Bft) 97,87 %
01.06.2023 23:32 13,1 C 12,2 C 8,9 C 79 % 1020,7 hPa 0,0 l/m 0 min 0 min 0 W/m 12,9 km/h (3 Bft) 100,00 %
01.06.2023 23:34 13,0 C 12,2 C 8,9 C 79 % 1020,7 hPa 0,0 l/m 0 min 0 min 0 W/m 12,9 km/h (3 Bft) 100,00 %
01.06.2023 23:36 13,0 C 12,2 C 8,9 C 79 % 1020,7 hPa 0,0 l/m 0 min 0 min 0 W/m 16,1 km/h (3 Bft) 95,74 %
01.06.2023 23:38 12,9 C 12,2 C 8,9 C 79 % 1020,7 hPa 0,0 l/m 0 min 0 min 0 W/m 6,4 km/h (2 Bft) 100,00 %
01.06.2023 23:40 12,9 C 12,2 C 8,9 C 80 % 1020,7 hPa 0,0 l/m 0 min 0 min 0 W/m 6,4 km/h (2 Bft) 97,83 %
01.06.2023 23:42 12,9 C 12,2 C 8,9 C 80 % 1020,7 hPa 0,0 l/m 0 min 0 min 0 W/m 16,1 km/h (3 Bft) 97,87 %
01.06.2023 23:44 12,8 C 12,2 C 8,9 C 80 % 1020,7 hPa 0,0 l/m 0 min 0 min 0 W/m 9,7 km/h (2 Bft) 97,87 %
01.06.2023 23:46 12,8 C 12,2 C 8,9 C 80 % 1020,7 hPa 0,0 l/m 0 min 0 min 0 W/m 6,4 km/h (2 Bft) 100,00 %
01.06.2023 23:48 12,8 C 12,2 C 8,9 C 80 % 1020,7 hPa 0,0 l/m 0 min 0 min 0 W/m 6,4 km/h (2 Bft) 97,87 %
01.06.2023 23:50 12,8 C 11,7 C 8,9 C 80 % 1020,8 hPa 0,0 l/m 0 min 0 min 0 W/m 9,7 km/h (2 Bft) 100,00 %
01.06.2023 23:52 12,7 C 11,7 C 8,9 C 80 % 1020,7 hPa 0,0 l/m 0 min 0 min 0 W/m 3,2 km/h (1 Bft) 97,87 %
01.06.2023 23:54 12,7 C 11,7 C 8,9 C 80 % 1020,8 hPa 0,0 l/m 0 min 0 min 0 W/m 6,4 km/h (2 Bft) 95,65 %
01.06.2023 23:56 12,7 C 11,7 C 8,9 C 80 % 1020,8 hPa 0,0 l/m 0 min 0 min 0 W/m 9,7 km/h (2 Bft) 100,00 %
01.06.2023 23:58 12,6 C 11,7 C 8,3 C 80 % 1020,8 hPa 0,0 l/m 0 min 0 min 0 W/m 12,9 km/h (3 Bft) 100,00 %
_ Min-Zeit 06:30 05:24 05:22 15:44 19:06 - - - - 00:00 16:44
Minimum _ 11,2 C 10,6 C 7,2 C 55 % 1019,5 hPa - - - - 0,0 km/h (0 Bft) 91,30 %
_ Max-Zeit 18:00 15:06 13:36 05:50 08:30 00:00 12:07 00:00 13:16 17:12 00:08
Maximum _ 22,7 C 28,3 C 25,6 C 92 % 1023,0 hPa 0,0 l/m 3 min 0 min 939 W/m 35,4 km/h
NW (5 Bft)
100,00 %
Durchschnitt _ 16,6 C 18,3 C 13,5 C 74 % 1021,5 hPa #0,0 l/m #10:58 h #0 min. 488 W/m 12,1 km/h (2 Bft) 97,57 %
© 2023 W. Hausmann